<?xml version="1.0" encoding="UTF-8" standalone="no" ?>
<gpx xmlns="http://www.topografix.com/GPX/1/1" xmlns:xsi="http://www.w3.org/2001/XMLSchema-instance" xsi:schemaLocation="http://www.topografix.com/GPX/1/1 http://www.topografix.com/GPX/1/1/gpx.xsd" version="1.1" creator="VisuGPX - https://www.visugpx.com">
  <metadata>
    <name>Boucle vernet co</name>
  </metadata>
  <trk>
    <name><![CDATA[Boucle vernet co_1]]></name>
    <trkseg>
      <trkpt lat="46.11005" lon="3.47669">
        <ele>406.2</ele>
        <time>2021-01-20T12:50:02Z</time>
      </trkpt>
      <trkpt lat="46.11001" lon="3.47659">
        <ele>404</ele>
        <time>2021-01-20T12:50:06Z</time>
      </trkpt>
      <trkpt lat="46.10999" lon="3.47654">
        <ele>403</ele>
        <time>2021-01-20T12:50:08Z</time>
      </trkpt>
      <trkpt lat="46.10998" lon="3.47649">
        <ele>402.4</ele>
        <time>2021-01-20T12:50:10Z</time>
      </trkpt>
      <trkpt lat="46.10998" lon="3.47647">
        <ele>402</ele>
        <time>2021-01-20T12:50:11Z</time>
      </trkpt>
      <trkpt lat="46.10997" lon="3.47642">
        <ele>400.6</ele>
        <time>2021-01-20T12:50:13Z</time>
      </trkpt>
      <trkpt lat="46.10996" lon="3.4764">
        <ele>400</ele>
        <time>2021-01-20T12:50:14Z</time>
      </trkpt>
      <trkpt lat="46.10995" lon="3.47636">
        <ele>399.2</ele>
        <time>2021-01-20T12:50:16Z</time>
      </trkpt>
      <trkpt lat="46.10994" lon="3.47632">
        <ele>399.2</ele>
        <time>2021-01-20T12:50:18Z</time>
      </trkpt>
      <trkpt lat="46.10992" lon="3.47629">
        <ele>399.2</ele>
        <time>2021-01-20T12:50:19Z</time>
      </trkpt>
      <trkpt lat="46.10992" lon="3.47626">
        <ele>399.6</ele>
        <time>2021-01-20T12:50:20Z</time>
      </trkpt>
      <trkpt lat="46.1099" lon="3.47621">
        <ele>399</ele>
        <time>2021-01-20T12:50:22Z</time>
      </trkpt>
      <trkpt lat="46.1099" lon="3.47618">
        <ele>398.8</ele>
        <time>2021-01-20T12:50:23Z</time>
      </trkpt>
      <trkpt lat="46.10989" lon="3.47616">
        <ele>398.8</ele>
        <time>2021-01-20T12:50:24Z</time>
      </trkpt>
      <trkpt lat="46.10986" lon="3.47613">
        <ele>398.6</ele>
        <time>2021-01-20T12:50:26Z</time>
      </trkpt>
      <trkpt lat="46.10985" lon="3.4761">
        <ele>398</ele>
        <time>2021-01-20T12:50:28Z</time>
      </trkpt>
      <trkpt lat="46.10985" lon="3.47606">
        <ele>398</ele>
        <time>2021-01-20T12:50:30Z</time>
      </trkpt>
      <trkpt lat="46.10985" lon="3.47602">
        <ele>397.6</ele>
        <time>2021-01-20T12:50:32Z</time>
      </trkpt>
      <trkpt lat="46.10983" lon="3.47599">
        <ele>396.8</ele>
        <time>2021-01-20T12:50:34Z</time>
      </trkpt>
      <trkpt lat="46.10982" lon="3.47597">
        <ele>397.2</ele>
        <time>2021-01-20T12:50:35Z</time>
      </trkpt>
      <trkpt lat="46.1098" lon="3.47595">
        <ele>397</ele>
        <time>2021-01-20T12:50:36Z</time>
      </trkpt>
      <trkpt lat="46.10976" lon="3.47582">
        <ele>395.6</ele>
        <time>2021-01-20T12:50:42Z</time>
      </trkpt>
      <trkpt lat="46.10975" lon="3.47578">
        <ele>395.8</ele>
        <time>2021-01-20T12:50:44Z</time>
      </trkpt>
      <trkpt lat="46.10971" lon="3.47565">
        <ele>394</ele>
        <time>2021-01-20T12:50:50Z</time>
      </trkpt>
      <trkpt lat="46.10965" lon="3.47551">
        <ele>393.2</ele>
        <time>2021-01-20T12:50:54Z</time>
      </trkpt>
      <trkpt lat="46.10958" lon="3.47542">
        <ele>392.4</ele>
        <time>2021-01-20T12:50:58Z</time>
      </trkpt>
      <trkpt lat="46.10952" lon="3.47536">
        <ele>393</ele>
        <time>2021-01-20T12:51:06Z</time>
      </trkpt>
      <trkpt lat="46.10951" lon="3.47534">
        <ele>393.8</ele>
        <time>2021-01-20T12:51:10Z</time>
      </trkpt>
      <trkpt lat="46.10948" lon="3.47532">
        <ele>394.2</ele>
        <time>2021-01-20T12:51:12Z</time>
      </trkpt>
      <trkpt lat="46.10946" lon="3.47533">
        <ele>395.2</ele>
        <time>2021-01-20T12:51:14Z</time>
      </trkpt>
      <trkpt lat="46.10944" lon="3.47533">
        <ele>396.4</ele>
        <time>2021-01-20T12:51:21Z</time>
      </trkpt>
      <trkpt lat="46.10942" lon="3.47532">
        <ele>396</ele>
        <time>2021-01-20T12:51:24Z</time>
      </trkpt>
      <trkpt lat="46.10941" lon="3.4753">
        <ele>396.2</ele>
        <time>2021-01-20T12:51:31Z</time>
      </trkpt>
      <trkpt lat="46.10939" lon="3.47528">
        <ele>397.2</ele>
        <time>2021-01-20T12:51:37Z</time>
      </trkpt>
      <trkpt lat="46.10939" lon="3.47526">
        <ele>397</ele>
        <time>2021-01-20T12:51:49Z</time>
      </trkpt>
      <trkpt lat="46.10936" lon="3.47526">
        <ele>395.2</ele>
        <time>2021-01-20T12:52:03Z</time>
      </trkpt>
      <trkpt lat="46.10933" lon="3.47525">
        <ele>395.4</ele>
        <time>2021-01-20T12:52:05Z</time>
      </trkpt>
      <trkpt lat="46.1093" lon="3.47526">
        <ele>395.8</ele>
        <time>2021-01-20T12:52:07Z</time>
      </trkpt>
      <trkpt lat="46.10923" lon="3.47528">
        <ele>396.4</ele>
        <time>2021-01-20T12:52:12Z</time>
      </trkpt>
      <trkpt lat="46.10921" lon="3.47528">
        <ele>396.6</ele>
        <time>2021-01-20T12:52:13Z</time>
      </trkpt>
      <trkpt lat="46.10918" lon="3.4753">
        <ele>396.8</ele>
        <time>2021-01-20T12:52:16Z</time>
      </trkpt>
      <trkpt lat="46.10914" lon="3.47531">
        <ele>396.8</ele>
        <time>2021-01-20T12:52:18Z</time>
      </trkpt>
      <trkpt lat="46.1091" lon="3.47531">
        <ele>397.2</ele>
        <time>2021-01-20T12:52:20Z</time>
      </trkpt>
      <trkpt lat="46.10907" lon="3.47531">
        <ele>397.6</ele>
        <time>2021-01-20T12:52:22Z</time>
      </trkpt>
      <trkpt lat="46.10905" lon="3.47531">
        <ele>398</ele>
        <time>2021-01-20T12:52:24Z</time>
      </trkpt>
      <trkpt lat="46.10902" lon="3.47531">
        <ele>397.8</ele>
        <time>2021-01-20T12:52:28Z</time>
      </trkpt>
      <trkpt lat="46.109" lon="3.47531">
        <ele>397.4</ele>
        <time>2021-01-20T12:52:30Z</time>
      </trkpt>
      <trkpt lat="46.10898" lon="3.47531">
        <ele>397.6</ele>
        <time>2021-01-20T12:52:33Z</time>
      </trkpt>
      <trkpt lat="46.10895" lon="3.47532">
        <ele>397.4</ele>
        <time>2021-01-20T12:52:36Z</time>
      </trkpt>
      <trkpt lat="46.10893" lon="3.47534">
        <ele>397</ele>
        <time>2021-01-20T12:52:39Z</time>
      </trkpt>
      <trkpt lat="46.10894" lon="3.47531">
        <ele>396</ele>
        <time>2021-01-20T12:52:47Z</time>
      </trkpt>
      <trkpt lat="46.10895" lon="3.47528">
        <ele>395.6</ele>
        <time>2021-01-20T12:52:53Z</time>
      </trkpt>
      <trkpt lat="46.10896" lon="3.47526">
        <ele>395.4</ele>
        <time>2021-01-20T12:52:56Z</time>
      </trkpt>
      <trkpt lat="46.10899" lon="3.47525">
        <ele>395.4</ele>
        <time>2021-01-20T12:52:59Z</time>
      </trkpt>
      <trkpt lat="46.10901" lon="3.47525">
        <ele>395.8</ele>
        <time>2021-01-20T12:53:01Z</time>
      </trkpt>
      <trkpt lat="46.10903" lon="3.47525">
        <ele>395.2</ele>
        <time>2021-01-20T12:53:03Z</time>
      </trkpt>
      <trkpt lat="46.10907" lon="3.47524">
        <ele>394.8</ele>
        <time>2021-01-20T12:53:05Z</time>
      </trkpt>
      <trkpt lat="46.10909" lon="3.47524">
        <ele>395</ele>
        <time>2021-01-20T12:53:06Z</time>
      </trkpt>
      <trkpt lat="46.10911" lon="3.47523">
        <ele>394.6</ele>
        <time>2021-01-20T12:53:08Z</time>
      </trkpt>
      <trkpt lat="46.10912" lon="3.4752">
        <ele>394.2</ele>
        <time>2021-01-20T12:53:11Z</time>
      </trkpt>
      <trkpt lat="46.10912" lon="3.47517">
        <ele>394.2</ele>
        <time>2021-01-20T12:53:14Z</time>
      </trkpt>
      <trkpt lat="46.10914" lon="3.47515">
        <ele>394</ele>
        <time>2021-01-20T12:53:17Z</time>
      </trkpt>
      <trkpt lat="46.10915" lon="3.47513">
        <ele>392.4</ele>
        <time>2021-01-20T12:53:22Z</time>
      </trkpt>
      <trkpt lat="46.10915" lon="3.4751">
        <ele>392</ele>
        <time>2021-01-20T12:53:25Z</time>
      </trkpt>
      <trkpt lat="46.10913" lon="3.47508">
        <ele>391.8</ele>
        <time>2021-01-20T12:53:30Z</time>
      </trkpt>
      <trkpt lat="46.10913" lon="3.47505">
        <ele>391.8</ele>
        <time>2021-01-20T12:53:33Z</time>
      </trkpt>
      <trkpt lat="46.10913" lon="3.47502">
        <ele>392.8</ele>
        <time>2021-01-20T12:53:41Z</time>
      </trkpt>
      <trkpt lat="46.10915" lon="3.47501">
        <ele>392.4</ele>
        <time>2021-01-20T12:53:46Z</time>
      </trkpt>
      <trkpt lat="46.10917" lon="3.47501">
        <ele>392.2</ele>
        <time>2021-01-20T12:53:48Z</time>
      </trkpt>
      <trkpt lat="46.10919" lon="3.475">
        <ele>391.8</ele>
        <time>2021-01-20T12:53:50Z</time>
      </trkpt>
      <trkpt lat="46.10919" lon="3.47496">
        <ele>393.8</ele>
        <time>2021-01-20T12:53:57Z</time>
      </trkpt>
      <trkpt lat="46.10917" lon="3.47495">
        <ele>393</ele>
        <time>2021-01-20T12:54:01Z</time>
      </trkpt>
      <trkpt lat="46.10914" lon="3.47494">
        <ele>392.8</ele>
        <time>2021-01-20T12:54:03Z</time>
      </trkpt>
      <trkpt lat="46.10913" lon="3.47496">
        <ele>393.4</ele>
        <time>2021-01-20T12:54:05Z</time>
      </trkpt>
      <trkpt lat="46.10911" lon="3.47497">
        <ele>393.8</ele>
        <time>2021-01-20T12:54:07Z</time>
      </trkpt>
      <trkpt lat="46.10908" lon="3.47497">
        <ele>394.4</ele>
        <time>2021-01-20T12:54:09Z</time>
      </trkpt>
      <trkpt lat="46.1091" lon="3.47495">
        <ele>394.6</ele>
        <time>2021-01-20T12:54:13Z</time>
      </trkpt>
      <trkpt lat="46.10912" lon="3.47492">
        <ele>395</ele>
        <time>2021-01-20T12:54:15Z</time>
      </trkpt>
      <trkpt lat="46.10915" lon="3.4749">
        <ele>394.4</ele>
        <time>2021-01-20T12:54:17Z</time>
      </trkpt>
      <trkpt lat="46.10917" lon="3.47487">
        <ele>393.8</ele>
        <time>2021-01-20T12:54:19Z</time>
      </trkpt>
      <trkpt lat="46.1092" lon="3.4749">
        <ele>393.4</ele>
        <time>2021-01-20T12:54:21Z</time>
      </trkpt>
      <trkpt lat="46.10922" lon="3.47493">
        <ele>393.4</ele>
        <time>2021-01-20T12:54:23Z</time>
      </trkpt>
      <trkpt lat="46.10923" lon="3.47496">
        <ele>393.6</ele>
        <time>2021-01-20T12:54:25Z</time>
      </trkpt>
      <trkpt lat="46.10923" lon="3.47499">
        <ele>394</ele>
        <time>2021-01-20T12:54:29Z</time>
      </trkpt>
      <trkpt lat="46.10922" lon="3.475">
        <ele>394.2</ele>
        <time>2021-01-20T12:54:31Z</time>
      </trkpt>
      <trkpt lat="46.1092" lon="3.47502">
        <ele>394.8</ele>
        <time>2021-01-20T12:54:35Z</time>
      </trkpt>
      <trkpt lat="46.10921" lon="3.47505">
        <ele>396</ele>
        <time>2021-01-20T12:54:41Z</time>
      </trkpt>
      <trkpt lat="46.10922" lon="3.47507">
        <ele>396.4</ele>
        <time>2021-01-20T12:54:43Z</time>
      </trkpt>
      <trkpt lat="46.1092" lon="3.47506">
        <ele>397.2</ele>
        <time>2021-01-20T12:54:48Z</time>
      </trkpt>
      <trkpt lat="46.10922" lon="3.47508">
        <ele>398.8</ele>
        <time>2021-01-20T12:55:01Z</time>
      </trkpt>
      <trkpt lat="46.1092" lon="3.47507">
        <ele>398.8</ele>
        <time>2021-01-20T12:55:12Z</time>
      </trkpt>
      <trkpt lat="46.10922" lon="3.47509">
        <ele>398.4</ele>
        <time>2021-01-20T12:55:20Z</time>
      </trkpt>
      <trkpt lat="46.10924" lon="3.47511">
        <ele>398.4</ele>
        <time>2021-01-20T12:55:22Z</time>
      </trkpt>
      <trkpt lat="46.10926" lon="3.47511">
        <ele>398.2</ele>
        <time>2021-01-20T12:55:24Z</time>
      </trkpt>
      <trkpt lat="46.10928" lon="3.47514">
        <ele>398.2</ele>
        <time>2021-01-20T12:55:27Z</time>
      </trkpt>
      <trkpt lat="46.10929" lon="3.47521">
        <ele>398.2</ele>
        <time>2021-01-20T12:55:32Z</time>
      </trkpt>
      <trkpt lat="46.10927" lon="3.47525">
        <ele>398.8</ele>
        <time>2021-01-20T12:55:35Z</time>
      </trkpt>
      <trkpt lat="46.10925" lon="3.47526">
        <ele>398.8</ele>
        <time>2021-01-20T12:55:37Z</time>
      </trkpt>
      <trkpt lat="46.10923" lon="3.47525">
        <ele>398.8</ele>
        <time>2021-01-20T12:55:40Z</time>
      </trkpt>
      <trkpt lat="46.10921" lon="3.47524">
        <ele>399.4</ele>
        <time>2021-01-20T12:55:49Z</time>
      </trkpt>
      <trkpt lat="46.10918" lon="3.47525">
        <ele>399.8</ele>
        <time>2021-01-20T12:55:52Z</time>
      </trkpt>
      <trkpt lat="46.10916" lon="3.47526">
        <ele>399</ele>
        <time>2021-01-20T12:55:55Z</time>
      </trkpt>
      <trkpt lat="46.10914" lon="3.47528">
        <ele>398.2</ele>
        <time>2021-01-20T12:55:58Z</time>
      </trkpt>
      <trkpt lat="46.10912" lon="3.47528">
        <ele>398.4</ele>
        <time>2021-01-20T12:56:01Z</time>
      </trkpt>
      <trkpt lat="46.1091" lon="3.4753">
        <ele>398.2</ele>
        <time>2021-01-20T12:56:03Z</time>
      </trkpt>
      <trkpt lat="46.10908" lon="3.4753">
        <ele>398.2</ele>
        <time>2021-01-20T12:56:07Z</time>
      </trkpt>
      <trkpt lat="46.10906" lon="3.4753">
        <ele>398.6</ele>
        <time>2021-01-20T12:56:09Z</time>
      </trkpt>
      <trkpt lat="46.10903" lon="3.4753">
        <ele>399.4</ele>
        <time>2021-01-20T12:56:18Z</time>
      </trkpt>
      <trkpt lat="46.10901" lon="3.4753">
        <ele>398.8</ele>
        <time>2021-01-20T12:56:21Z</time>
      </trkpt>
      <trkpt lat="46.10898" lon="3.4753">
        <ele>398.6</ele>
        <time>2021-01-20T12:56:23Z</time>
      </trkpt>
      <trkpt lat="46.10896" lon="3.4753">
        <ele>398.6</ele>
        <time>2021-01-20T12:56:24Z</time>
      </trkpt>
      <trkpt lat="46.10894" lon="3.47531">
        <ele>398.8</ele>
        <time>2021-01-20T12:56:25Z</time>
      </trkpt>
      <trkpt lat="46.1089" lon="3.4753">
        <ele>399</ele>
        <time>2021-01-20T12:56:27Z</time>
      </trkpt>
      <trkpt lat="46.10886" lon="3.4753">
        <ele>399.4</ele>
        <time>2021-01-20T12:56:29Z</time>
      </trkpt>
      <trkpt lat="46.10884" lon="3.47531">
        <ele>399.2</ele>
        <time>2021-01-20T12:56:30Z</time>
      </trkpt>
      <trkpt lat="46.10882" lon="3.47531">
        <ele>399.2</ele>
        <time>2021-01-20T12:56:31Z</time>
      </trkpt>
      <trkpt lat="46.1088" lon="3.47531">
        <ele>399.2</ele>
        <time>2021-01-20T12:56:32Z</time>
      </trkpt>
      <trkpt lat="46.10878" lon="3.47531">
        <ele>399.2</ele>
        <time>2021-01-20T12:56:33Z</time>
      </trkpt>
      <trkpt lat="46.10876" lon="3.47531">
        <ele>399.2</ele>
        <time>2021-01-20T12:56:34Z</time>
      </trkpt>
      <trkpt lat="46.10867" lon="3.47532">
        <ele>400.2</ele>
        <time>2021-01-20T12:56:39Z</time>
      </trkpt>
      <trkpt lat="46.10864" lon="3.47532">
        <ele>400.2</ele>
        <time>2021-01-20T12:56:41Z</time>
      </trkpt>
      <trkpt lat="46.10862" lon="3.47533">
        <ele>400.6</ele>
        <time>2021-01-20T12:56:43Z</time>
      </trkpt>
      <trkpt lat="46.1086" lon="3.47534">
        <ele>400.2</ele>
        <time>2021-01-20T12:56:46Z</time>
      </trkpt>
      <trkpt lat="46.10857" lon="3.47534">
        <ele>400</ele>
        <time>2021-01-20T12:56:49Z</time>
      </trkpt>
      <trkpt lat="46.10854" lon="3.47536">
        <ele>401</ele>
        <time>2021-01-20T12:56:51Z</time>
      </trkpt>
      <trkpt lat="46.10852" lon="3.47538">
        <ele>402</ele>
        <time>2021-01-20T12:56:53Z</time>
      </trkpt>
      <trkpt lat="46.10849" lon="3.47539">
        <ele>402.2</ele>
        <time>2021-01-20T12:56:55Z</time>
      </trkpt>
      <trkpt lat="46.10847" lon="3.47542">
        <ele>402.2</ele>
        <time>2021-01-20T12:56:57Z</time>
      </trkpt>
      <trkpt lat="46.10846" lon="3.47544">
        <ele>402.4</ele>
        <time>2021-01-20T12:57:00Z</time>
      </trkpt>
      <trkpt lat="46.10844" lon="3.47546">
        <ele>402.4</ele>
        <time>2021-01-20T12:57:03Z</time>
      </trkpt>
      <trkpt lat="46.10841" lon="3.47547">
        <ele>402.8</ele>
        <time>2021-01-20T12:57:06Z</time>
      </trkpt>
      <trkpt lat="46.1084" lon="3.47549">
        <ele>403</ele>
        <time>2021-01-20T12:57:09Z</time>
      </trkpt>
      <trkpt lat="46.10839" lon="3.47551">
        <ele>403.4</ele>
        <time>2021-01-20T12:57:11Z</time>
      </trkpt>
      <trkpt lat="46.10839" lon="3.47555">
        <ele>403.6</ele>
        <time>2021-01-20T12:57:13Z</time>
      </trkpt>
      <trkpt lat="46.10838" lon="3.47558">
        <ele>402.6</ele>
        <time>2021-01-20T12:57:16Z</time>
      </trkpt>
      <trkpt lat="46.10835" lon="3.47562">
        <ele>403.6</ele>
        <time>2021-01-20T12:57:18Z</time>
      </trkpt>
      <trkpt lat="46.10827" lon="3.47563">
        <ele>405.2</ele>
        <time>2021-01-20T12:57:25Z</time>
      </trkpt>
      <trkpt lat="46.10825" lon="3.47562">
        <ele>405.4</ele>
        <time>2021-01-20T12:57:29Z</time>
      </trkpt>
      <trkpt lat="46.10823" lon="3.47559">
        <ele>405.6</ele>
        <time>2021-01-20T12:57:32Z</time>
      </trkpt>
      <trkpt lat="46.10822" lon="3.47556">
        <ele>405.2</ele>
        <time>2021-01-20T12:57:34Z</time>
      </trkpt>
      <trkpt lat="46.1082" lon="3.47554">
        <ele>405.2</ele>
        <time>2021-01-20T12:57:36Z</time>
      </trkpt>
      <trkpt lat="46.10818" lon="3.47553">
        <ele>405</ele>
        <time>2021-01-20T12:57:38Z</time>
      </trkpt>
      <trkpt lat="46.10816" lon="3.47555">
        <ele>405.6</ele>
        <time>2021-01-20T12:57:40Z</time>
      </trkpt>
      <trkpt lat="46.10814" lon="3.47555">
        <ele>406.2</ele>
        <time>2021-01-20T12:57:42Z</time>
      </trkpt>
      <trkpt lat="46.10812" lon="3.47555">
        <ele>407.2</ele>
        <time>2021-01-20T12:57:44Z</time>
      </trkpt>
      <trkpt lat="46.10809" lon="3.47554">
        <ele>407</ele>
        <time>2021-01-20T12:57:46Z</time>
      </trkpt>
      <trkpt lat="46.10807" lon="3.47555">
        <ele>407</ele>
        <time>2021-01-20T12:57:48Z</time>
      </trkpt>
      <trkpt lat="46.10805" lon="3.47556">
        <ele>407.6</ele>
        <time>2021-01-20T12:57:50Z</time>
      </trkpt>
      <trkpt lat="46.10796" lon="3.47562">
        <ele>411.6</ele>
        <time>2021-01-20T12:57:56Z</time>
      </trkpt>
      <trkpt lat="46.10794" lon="3.47564">
        <ele>411.6</ele>
        <time>2021-01-20T12:57:57Z</time>
      </trkpt>
      <trkpt lat="46.10792" lon="3.47565">
        <ele>411.8</ele>
        <time>2021-01-20T12:57:58Z</time>
      </trkpt>
      <trkpt lat="46.1079" lon="3.47566">
        <ele>411.8</ele>
        <time>2021-01-20T12:57:59Z</time>
      </trkpt>
      <trkpt lat="46.10788" lon="3.47567">
        <ele>412.4</ele>
        <time>2021-01-20T12:58:06Z</time>
      </trkpt>
      <trkpt lat="46.10786" lon="3.47569">
        <ele>412.6</ele>
        <time>2021-01-20T12:58:08Z</time>
      </trkpt>
      <trkpt lat="46.10784" lon="3.47571">
        <ele>413.2</ele>
        <time>2021-01-20T12:58:10Z</time>
      </trkpt>
      <trkpt lat="46.10785" lon="3.47574">
        <ele>412.2</ele>
        <time>2021-01-20T12:58:26Z</time>
      </trkpt>
      <trkpt lat="46.10782" lon="3.47577">
        <ele>410</ele>
        <time>2021-01-20T12:58:33Z</time>
      </trkpt>
      <trkpt lat="46.1078" lon="3.47578">
        <ele>409</ele>
        <time>2021-01-20T12:58:36Z</time>
      </trkpt>
      <trkpt lat="46.10778" lon="3.47578">
        <ele>408.2</ele>
        <time>2021-01-20T12:58:39Z</time>
      </trkpt>
      <trkpt lat="46.10775" lon="3.47579">
        <ele>408</ele>
        <time>2021-01-20T12:58:41Z</time>
      </trkpt>
      <trkpt lat="46.10773" lon="3.47579">
        <ele>408.6</ele>
        <time>2021-01-20T12:58:43Z</time>
      </trkpt>
      <trkpt lat="46.1077" lon="3.47578">
        <ele>409.2</ele>
        <time>2021-01-20T12:58:46Z</time>
      </trkpt>
      <trkpt lat="46.10768" lon="3.47578">
        <ele>409.4</ele>
        <time>2021-01-20T12:58:47Z</time>
      </trkpt>
      <trkpt lat="46.10766" lon="3.47578">
        <ele>409.6</ele>
        <time>2021-01-20T12:58:49Z</time>
      </trkpt>
      <trkpt lat="46.10763" lon="3.47579">
        <ele>409.2</ele>
        <time>2021-01-20T12:58:51Z</time>
      </trkpt>
      <trkpt lat="46.10756" lon="3.47582">
        <ele>410.4</ele>
        <time>2021-01-20T12:58:56Z</time>
      </trkpt>
      <trkpt lat="46.10752" lon="3.47583">
        <ele>411</ele>
        <time>2021-01-20T12:58:59Z</time>
      </trkpt>
      <trkpt lat="46.1075" lon="3.47586">
        <ele>412</ele>
        <time>2021-01-20T12:59:01Z</time>
      </trkpt>
      <trkpt lat="46.10749" lon="3.47589">
        <ele>412.8</ele>
        <time>2021-01-20T12:59:03Z</time>
      </trkpt>
      <trkpt lat="46.10748" lon="3.47592">
        <ele>413.2</ele>
        <time>2021-01-20T12:59:05Z</time>
      </trkpt>
      <trkpt lat="46.10745" lon="3.47595">
        <ele>413.4</ele>
        <time>2021-01-20T12:59:07Z</time>
      </trkpt>
      <trkpt lat="46.10742" lon="3.47608">
        <ele>415.4</ele>
        <time>2021-01-20T12:59:13Z</time>
      </trkpt>
      <trkpt lat="46.10735" lon="3.47618">
        <ele>417.6</ele>
        <time>2021-01-20T12:59:18Z</time>
      </trkpt>
      <trkpt lat="46.10728" lon="3.4763">
        <ele>419.4</ele>
        <time>2021-01-20T12:59:23Z</time>
      </trkpt>
      <trkpt lat="46.10721" lon="3.4764">
        <ele>420.2</ele>
        <time>2021-01-20T12:59:27Z</time>
      </trkpt>
      <trkpt lat="46.10716" lon="3.47651">
        <ele>421.8</ele>
        <time>2021-01-20T12:59:33Z</time>
      </trkpt>
      <trkpt lat="46.10713" lon="3.4766">
        <ele>423.6</ele>
        <time>2021-01-20T12:59:39Z</time>
      </trkpt>
      <trkpt lat="46.10711" lon="3.47662">
        <ele>424.8</ele>
        <time>2021-01-20T12:59:40Z</time>
      </trkpt>
      <trkpt lat="46.10709" lon="3.47664">
        <ele>425.8</ele>
        <time>2021-01-20T12:59:42Z</time>
      </trkpt>
      <trkpt lat="46.10706" lon="3.47669">
        <ele>427.4</ele>
        <time>2021-01-20T12:59:45Z</time>
      </trkpt>
      <trkpt lat="46.10705" lon="3.47671">
        <ele>427.8</ele>
        <time>2021-01-20T12:59:46Z</time>
      </trkpt>
      <trkpt lat="46.10703" lon="3.47674">
        <ele>428.2</ele>
        <time>2021-01-20T12:59:48Z</time>
      </trkpt>
      <trkpt lat="46.10702" lon="3.47678">
        <ele>428.6</ele>
        <time>2021-01-20T12:59:50Z</time>
      </trkpt>
      <trkpt lat="46.107" lon="3.47681">
        <ele>429.4</ele>
        <time>2021-01-20T12:59:52Z</time>
      </trkpt>
      <trkpt lat="46.10699" lon="3.47685">
        <ele>429.8</ele>
        <time>2021-01-20T12:59:54Z</time>
      </trkpt>
      <trkpt lat="46.10697" lon="3.47698">
        <ele>430.4</ele>
        <time>2021-01-20T12:59:58Z</time>
      </trkpt>
      <trkpt lat="46.10691" lon="3.47712">
        <ele>431.4</ele>
        <time>2021-01-20T13:00:02Z</time>
      </trkpt>
      <trkpt lat="46.10686" lon="3.47723">
        <ele>432.8</ele>
        <time>2021-01-20T13:00:07Z</time>
      </trkpt>
      <trkpt lat="46.1068" lon="3.47732">
        <ele>433.6</ele>
        <time>2021-01-20T13:00:11Z</time>
      </trkpt>
      <trkpt lat="46.10673" lon="3.47742">
        <ele>435</ele>
        <time>2021-01-20T13:00:16Z</time>
      </trkpt>
      <trkpt lat="46.10665" lon="3.47752">
        <ele>435.6</ele>
        <time>2021-01-20T13:00:22Z</time>
      </trkpt>
      <trkpt lat="46.10661" lon="3.47758">
        <ele>437.4</ele>
        <time>2021-01-20T13:00:26Z</time>
      </trkpt>
      <trkpt lat="46.10658" lon="3.4776">
        <ele>437.4</ele>
        <time>2021-01-20T13:00:28Z</time>
      </trkpt>
      <trkpt lat="46.10657" lon="3.47763">
        <ele>437.2</ele>
        <time>2021-01-20T13:00:30Z</time>
      </trkpt>
      <trkpt lat="46.10655" lon="3.47766">
        <ele>438</ele>
        <time>2021-01-20T13:00:32Z</time>
      </trkpt>
      <trkpt lat="46.10655" lon="3.47769">
        <ele>437.8</ele>
        <time>2021-01-20T13:00:34Z</time>
      </trkpt>
      <trkpt lat="46.10653" lon="3.47771">
        <ele>438.4</ele>
        <time>2021-01-20T13:00:37Z</time>
      </trkpt>
      <trkpt lat="46.10651" lon="3.47772">
        <ele>438.4</ele>
        <time>2021-01-20T13:00:40Z</time>
      </trkpt>
      <trkpt lat="46.10651" lon="3.47775">
        <ele>438.4</ele>
        <time>2021-01-20T13:00:43Z</time>
      </trkpt>
      <trkpt lat="46.10649" lon="3.47777">
        <ele>438.4</ele>
        <time>2021-01-20T13:00:48Z</time>
      </trkpt>
      <trkpt lat="46.10647" lon="3.47779">
        <ele>438.4</ele>
        <time>2021-01-20T13:00:53Z</time>
      </trkpt>
      <trkpt lat="46.10646" lon="3.47782">
        <ele>440.2</ele>
        <time>2021-01-20T13:01:15Z</time>
      </trkpt>
      <trkpt lat="46.10645" lon="3.47783">
        <ele>437.6</ele>
        <time>2021-01-20T13:01:38Z</time>
      </trkpt>
      <trkpt lat="46.10643" lon="3.47787">
        <ele>437.6</ele>
        <time>2021-01-20T13:01:44Z</time>
      </trkpt>
      <trkpt lat="46.10642" lon="3.47789">
        <ele>437.8</ele>
        <time>2021-01-20T13:01:46Z</time>
      </trkpt>
      <trkpt lat="46.10641" lon="3.47793">
        <ele>438.2</ele>
        <time>2021-01-20T13:01:48Z</time>
      </trkpt>
      <trkpt lat="46.1064" lon="3.47797">
        <ele>438</ele>
        <time>2021-01-20T13:01:50Z</time>
      </trkpt>
      <trkpt lat="46.10639" lon="3.47801">
        <ele>438.2</ele>
        <time>2021-01-20T13:01:52Z</time>
      </trkpt>
      <trkpt lat="46.10638" lon="3.47807">
        <ele>439.4</ele>
        <time>2021-01-20T13:01:54Z</time>
      </trkpt>
      <trkpt lat="46.10638" lon="3.47822">
        <ele>441.2</ele>
        <time>2021-01-20T13:01:59Z</time>
      </trkpt>
      <trkpt lat="46.10633" lon="3.47835">
        <ele>440.2</ele>
        <time>2021-01-20T13:02:04Z</time>
      </trkpt>
      <trkpt lat="46.10628" lon="3.47846">
        <ele>441.8</ele>
        <time>2021-01-20T13:02:09Z</time>
      </trkpt>
      <trkpt lat="46.10623" lon="3.47857">
        <ele>443.8</ele>
        <time>2021-01-20T13:02:14Z</time>
      </trkpt>
      <trkpt lat="46.10617" lon="3.47869">
        <ele>445.2</ele>
        <time>2021-01-20T13:02:19Z</time>
      </trkpt>
      <trkpt lat="46.10611" lon="3.47881">
        <ele>445.2</ele>
        <time>2021-01-20T13:02:24Z</time>
      </trkpt>
      <trkpt lat="46.10605" lon="3.47893">
        <ele>446</ele>
        <time>2021-01-20T13:02:29Z</time>
      </trkpt>
      <trkpt lat="46.10601" lon="3.47906">
        <ele>446.8</ele>
        <time>2021-01-20T13:02:34Z</time>
      </trkpt>
      <trkpt lat="46.10595" lon="3.4792">
        <ele>446.2</ele>
        <time>2021-01-20T13:02:39Z</time>
      </trkpt>
      <trkpt lat="46.10591" lon="3.47935">
        <ele>446</ele>
        <time>2021-01-20T13:02:44Z</time>
      </trkpt>
      <trkpt lat="46.10587" lon="3.47946">
        <ele>447</ele>
        <time>2021-01-20T13:02:48Z</time>
      </trkpt>
      <trkpt lat="46.10582" lon="3.47958">
        <ele>448.2</ele>
        <time>2021-01-20T13:02:52Z</time>
      </trkpt>
      <trkpt lat="46.10581" lon="3.47971">
        <ele>448.4</ele>
        <time>2021-01-20T13:02:56Z</time>
      </trkpt>
      <trkpt lat="46.10579" lon="3.47987">
        <ele>448.2</ele>
        <time>2021-01-20T13:03:01Z</time>
      </trkpt>
      <trkpt lat="46.10576" lon="3.48002">
        <ele>451.2</ele>
        <time>2021-01-20T13:03:06Z</time>
      </trkpt>
      <trkpt lat="46.10576" lon="3.48005">
        <ele>450.8</ele>
        <time>2021-01-20T13:03:07Z</time>
      </trkpt>
      <trkpt lat="46.10575" lon="3.48008">
        <ele>451.4</ele>
        <time>2021-01-20T13:03:08Z</time>
      </trkpt>
      <trkpt lat="46.10575" lon="3.48011">
        <ele>452</ele>
        <time>2021-01-20T13:03:09Z</time>
      </trkpt>
      <trkpt lat="46.10575" lon="3.48014">
        <ele>452</ele>
        <time>2021-01-20T13:03:10Z</time>
      </trkpt>
      <trkpt lat="46.10576" lon="3.4802">
        <ele>452.4</ele>
        <time>2021-01-20T13:03:12Z</time>
      </trkpt>
      <trkpt lat="46.10575" lon="3.48037">
        <ele>452.2</ele>
        <time>2021-01-20T13:03:17Z</time>
      </trkpt>
      <trkpt lat="46.10574" lon="3.48052">
        <ele>452.4</ele>
        <time>2021-01-20T13:03:20Z</time>
      </trkpt>
      <trkpt lat="46.10574" lon="3.48067">
        <ele>454.2</ele>
        <time>2021-01-20T13:03:24Z</time>
      </trkpt>
      <trkpt lat="46.10573" lon="3.48083">
        <ele>454.8</ele>
        <time>2021-01-20T13:03:29Z</time>
      </trkpt>
      <trkpt lat="46.10574" lon="3.48096">
        <ele>455.4</ele>
        <time>2021-01-20T13:03:34Z</time>
      </trkpt>
      <trkpt lat="46.10573" lon="3.4811">
        <ele>458.8</ele>
        <time>2021-01-20T13:03:46Z</time>
      </trkpt>
      <trkpt lat="46.10573" lon="3.48113">
        <ele>460.2</ele>
        <time>2021-01-20T13:03:54Z</time>
      </trkpt>
      <trkpt lat="46.10573" lon="3.48116">
        <ele>460.2</ele>
        <time>2021-01-20T13:04:03Z</time>
      </trkpt>
      <trkpt lat="46.10573" lon="3.48119">
        <ele>460.2</ele>
        <time>2021-01-20T13:04:05Z</time>
      </trkpt>
      <trkpt lat="46.10575" lon="3.48121">
        <ele>459.2</ele>
        <time>2021-01-20T13:04:09Z</time>
      </trkpt>
      <trkpt lat="46.10581" lon="3.48131">
        <ele>458.6</ele>
        <time>2021-01-20T13:04:19Z</time>
      </trkpt>
      <trkpt lat="46.10591" lon="3.4813">
        <ele>458.4</ele>
        <time>2021-01-20T13:04:29Z</time>
      </trkpt>
      <trkpt lat="46.10592" lon="3.4813">
        <ele>459</ele>
        <time>2021-01-20T13:04:31Z</time>
      </trkpt>
      <trkpt lat="46.10594" lon="3.48127">
        <ele>459.4</ele>
        <time>2021-01-20T13:04:34Z</time>
      </trkpt>
      <trkpt lat="46.10596" lon="3.48125">
        <ele>461</ele>
        <time>2021-01-20T13:04:37Z</time>
      </trkpt>
      <trkpt lat="46.10599" lon="3.48123">
        <ele>462</ele>
        <time>2021-01-20T13:04:39Z</time>
      </trkpt>
      <trkpt lat="46.106" lon="3.48122">
        <ele>463.4</ele>
        <time>2021-01-20T13:04:41Z</time>
      </trkpt>
      <trkpt lat="46.10602" lon="3.4812">
        <ele>464.8</ele>
        <time>2021-01-20T13:04:43Z</time>
      </trkpt>
      <trkpt lat="46.10605" lon="3.48118">
        <ele>466.4</ele>
        <time>2021-01-20T13:04:45Z</time>
      </trkpt>
      <trkpt lat="46.10607" lon="3.48116">
        <ele>468</ele>
        <time>2021-01-20T13:04:47Z</time>
      </trkpt>
      <trkpt lat="46.10609" lon="3.48115">
        <ele>469</ele>
        <time>2021-01-20T13:04:49Z</time>
      </trkpt>
      <trkpt lat="46.10611" lon="3.48112">
        <ele>470.2</ele>
        <time>2021-01-20T13:04:52Z</time>
      </trkpt>
      <trkpt lat="46.10614" lon="3.48112">
        <ele>470.6</ele>
        <time>2021-01-20T13:04:54Z</time>
      </trkpt>
      <trkpt lat="46.10624" lon="3.48112">
        <ele>472</ele>
        <time>2021-01-20T13:05:03Z</time>
      </trkpt>
      <trkpt lat="46.10634" lon="3.48114">
        <ele>472.6</ele>
        <time>2021-01-20T13:05:12Z</time>
      </trkpt>
      <trkpt lat="46.10643" lon="3.48115">
        <ele>477.2</ele>
        <time>2021-01-20T13:05:20Z</time>
      </trkpt>
      <trkpt lat="46.10652" lon="3.48119">
        <ele>479.8</ele>
        <time>2021-01-20T13:05:29Z</time>
      </trkpt>
      <trkpt lat="46.10655" lon="3.48122">
        <ele>482.4</ele>
        <time>2021-01-20T13:05:34Z</time>
      </trkpt>
      <trkpt lat="46.10653" lon="3.48122">
        <ele>483</ele>
        <time>2021-01-20T13:05:36Z</time>
      </trkpt>
      <trkpt lat="46.10651" lon="3.48123">
        <ele>483.6</ele>
        <time>2021-01-20T13:05:40Z</time>
      </trkpt>
      <trkpt lat="46.10653" lon="3.48123">
        <ele>480.8</ele>
        <time>2021-01-20T13:05:53Z</time>
      </trkpt>
      <trkpt lat="46.10653" lon="3.48126">
        <ele>477.6</ele>
        <time>2021-01-20T13:06:17Z</time>
      </trkpt>
      <trkpt lat="46.10653" lon="3.48129">
        <ele>477.2</ele>
        <time>2021-01-20T13:06:20Z</time>
      </trkpt>
      <trkpt lat="46.10653" lon="3.48132">
        <ele>476.8</ele>
        <time>2021-01-20T13:06:30Z</time>
      </trkpt>
      <trkpt lat="46.10651" lon="3.48132">
        <ele>475.6</ele>
        <time>2021-01-20T13:06:43Z</time>
      </trkpt>
      <trkpt lat="46.1065" lon="3.48129">
        <ele>474.4</ele>
        <time>2021-01-20T13:06:53Z</time>
      </trkpt>
      <trkpt lat="46.10649" lon="3.48125">
        <ele>476</ele>
        <time>2021-01-20T13:06:59Z</time>
      </trkpt>
      <trkpt lat="46.10649" lon="3.48123">
        <ele>477.6</ele>
        <time>2021-01-20T13:07:08Z</time>
      </trkpt>
      <trkpt lat="46.1065" lon="3.4812">
        <ele>477.2</ele>
        <time>2021-01-20T13:07:11Z</time>
      </trkpt>
      <trkpt lat="46.10653" lon="3.48118">
        <ele>476.8</ele>
        <time>2021-01-20T13:07:13Z</time>
      </trkpt>
      <trkpt lat="46.10655" lon="3.48115">
        <ele>477</ele>
        <time>2021-01-20T13:07:15Z</time>
      </trkpt>
      <trkpt lat="46.10658" lon="3.48114">
        <ele>476.2</ele>
        <time>2021-01-20T13:07:17Z</time>
      </trkpt>
      <trkpt lat="46.10663" lon="3.48114">
        <ele>479.8</ele>
        <time>2021-01-20T13:07:22Z</time>
      </trkpt>
      <trkpt lat="46.10666" lon="3.48114">
        <ele>481</ele>
        <time>2021-01-20T13:07:24Z</time>
      </trkpt>
      <trkpt lat="46.10669" lon="3.48115">
        <ele>481.6</ele>
        <time>2021-01-20T13:07:26Z</time>
      </trkpt>
      <trkpt lat="46.10671" lon="3.48115">
        <ele>482</ele>
        <time>2021-01-20T13:07:28Z</time>
      </trkpt>
      <trkpt lat="46.10672" lon="3.48117">
        <ele>482.6</ele>
        <time>2021-01-20T13:07:31Z</time>
      </trkpt>
      <trkpt lat="46.10675" lon="3.48118">
        <ele>485.6</ele>
        <time>2021-01-20T13:07:44Z</time>
      </trkpt>
      <trkpt lat="46.10673" lon="3.48119">
        <ele>484.4</ele>
        <time>2021-01-20T13:07:50Z</time>
      </trkpt>
      <trkpt lat="46.1067" lon="3.48118">
        <ele>484</ele>
        <time>2021-01-20T13:07:53Z</time>
      </trkpt>
      <trkpt lat="46.10669" lon="3.48117">
        <ele>483.4</ele>
        <time>2021-01-20T13:07:59Z</time>
      </trkpt>
      <trkpt lat="46.1067" lon="3.4812">
        <ele>482.8</ele>
        <time>2021-01-20T13:08:08Z</time>
      </trkpt>
      <trkpt lat="46.10668" lon="3.48119">
        <ele>482.4</ele>
        <time>2021-01-20T13:08:12Z</time>
      </trkpt>
      <trkpt lat="46.10667" lon="3.48118">
        <ele>483.6</ele>
        <time>2021-01-20T13:08:21Z</time>
      </trkpt>
      <trkpt lat="46.10668" lon="3.48119">
        <ele>481.2</ele>
        <time>2021-01-20T13:08:30Z</time>
      </trkpt>
      <trkpt lat="46.1067" lon="3.48122">
        <ele>481.4</ele>
        <time>2021-01-20T13:08:32Z</time>
      </trkpt>
      <trkpt lat="46.10671" lon="3.48126">
        <ele>482.4</ele>
        <time>2021-01-20T13:08:34Z</time>
      </trkpt>
      <trkpt lat="46.10671" lon="3.48129">
        <ele>482.2</ele>
        <time>2021-01-20T13:08:35Z</time>
      </trkpt>
      <trkpt lat="46.10672" lon="3.48132">
        <ele>482.4</ele>
        <time>2021-01-20T13:08:36Z</time>
      </trkpt>
      <trkpt lat="46.10673" lon="3.48136">
        <ele>481.8</ele>
        <time>2021-01-20T13:08:38Z</time>
      </trkpt>
      <trkpt lat="46.10675" lon="3.48139">
        <ele>481.8</ele>
        <time>2021-01-20T13:08:40Z</time>
      </trkpt>
      <trkpt lat="46.10682" lon="3.48147">
        <ele>480.4</ele>
        <time>2021-01-20T13:08:48Z</time>
      </trkpt>
      <trkpt lat="46.1069" lon="3.48142">
        <ele>476.2</ele>
        <time>2021-01-20T13:08:59Z</time>
      </trkpt>
      <trkpt lat="46.10691" lon="3.48141">
        <ele>475.6</ele>
        <time>2021-01-20T13:09:01Z</time>
      </trkpt>
      <trkpt lat="46.10695" lon="3.4814">
        <ele>474</ele>
        <time>2021-01-20T13:09:04Z</time>
      </trkpt>
      <trkpt lat="46.10697" lon="3.4814">
        <ele>473</ele>
        <time>2021-01-20T13:09:06Z</time>
      </trkpt>
      <trkpt lat="46.10699" lon="3.4814">
        <ele>472.4</ele>
        <time>2021-01-20T13:09:08Z</time>
      </trkpt>
      <trkpt lat="46.107" lon="3.48142">
        <ele>472</ele>
        <time>2021-01-20T13:09:12Z</time>
      </trkpt>
      <trkpt lat="46.10699" lon="3.48144">
        <ele>470.8</ele>
        <time>2021-01-20T13:09:15Z</time>
      </trkpt>
      <trkpt lat="46.107" lon="3.48146">
        <ele>470.2</ele>
        <time>2021-01-20T13:09:19Z</time>
      </trkpt>
      <trkpt lat="46.10699" lon="3.48149">
        <ele>470.6</ele>
        <time>2021-01-20T13:09:22Z</time>
      </trkpt>
      <trkpt lat="46.10697" lon="3.48149">
        <ele>471.6</ele>
        <time>2021-01-20T13:09:25Z</time>
      </trkpt>
      <trkpt lat="46.10699" lon="3.48147">
        <ele>469.8</ele>
        <time>2021-01-20T13:09:36Z</time>
      </trkpt>
      <trkpt lat="46.107" lon="3.48145">
        <ele>468.2</ele>
        <time>2021-01-20T13:09:42Z</time>
      </trkpt>
      <trkpt lat="46.10698" lon="3.48143">
        <ele>467</ele>
        <time>2021-01-20T13:09:47Z</time>
      </trkpt>
      <trkpt lat="46.10697" lon="3.4814">
        <ele>467.2</ele>
        <time>2021-01-20T13:09:53Z</time>
      </trkpt>
      <trkpt lat="46.10695" lon="3.48141">
        <ele>463.8</ele>
        <time>2021-01-20T13:10:15Z</time>
      </trkpt>
      <trkpt lat="46.10694" lon="3.48143">
        <ele>463.4</ele>
        <time>2021-01-20T13:10:17Z</time>
      </trkpt>
      <trkpt lat="46.10692" lon="3.48144">
        <ele>462.8</ele>
        <time>2021-01-20T13:10:21Z</time>
      </trkpt>
      <trkpt lat="46.10694" lon="3.48142">
        <ele>461.6</ele>
        <time>2021-01-20T13:10:29Z</time>
      </trkpt>
      <trkpt lat="46.10696" lon="3.48141">
        <ele>461.6</ele>
        <time>2021-01-20T13:10:31Z</time>
      </trkpt>
      <trkpt lat="46.10699" lon="3.48141">
        <ele>461.4</ele>
        <time>2021-01-20T13:10:33Z</time>
      </trkpt>
      <trkpt lat="46.107" lon="3.48143">
        <ele>460.8</ele>
        <time>2021-01-20T13:10:34Z</time>
      </trkpt>
      <trkpt lat="46.10702" lon="3.48146">
        <ele>459.4</ele>
        <time>2021-01-20T13:10:36Z</time>
      </trkpt>
      <trkpt lat="46.10704" lon="3.4815">
        <ele>458.4</ele>
        <time>2021-01-20T13:10:38Z</time>
      </trkpt>
      <trkpt lat="46.10707" lon="3.48153">
        <ele>457.6</ele>
        <time>2021-01-20T13:10:40Z</time>
      </trkpt>
      <trkpt lat="46.10714" lon="3.48164">
        <ele>455.2</ele>
        <time>2021-01-20T13:10:45Z</time>
      </trkpt>
      <trkpt lat="46.10717" lon="3.48168">
        <ele>454.4</ele>
        <time>2021-01-20T13:10:47Z</time>
      </trkpt>
      <trkpt lat="46.10719" lon="3.4817">
        <ele>453.8</ele>
        <time>2021-01-20T13:10:48Z</time>
      </trkpt>
      <trkpt lat="46.10724" lon="3.48176">
        <ele>451.6</ele>
        <time>2021-01-20T13:10:52Z</time>
      </trkpt>
      <trkpt lat="46.10726" lon="3.48178">
        <ele>451</ele>
        <time>2021-01-20T13:10:53Z</time>
      </trkpt>
      <trkpt lat="46.10726" lon="3.48181">
        <ele>449.2</ele>
        <time>2021-01-20T13:10:55Z</time>
      </trkpt>
      <trkpt lat="46.10725" lon="3.48178">
        <ele>447</ele>
        <time>2021-01-20T13:11:02Z</time>
      </trkpt>
      <trkpt lat="46.10723" lon="3.48177">
        <ele>446.8</ele>
        <time>2021-01-20T13:11:05Z</time>
      </trkpt>
      <trkpt lat="46.10724" lon="3.4818">
        <ele>446.4</ele>
        <time>2021-01-20T13:11:09Z</time>
      </trkpt>
      <trkpt lat="46.10724" lon="3.48183">
        <ele>444.4</ele>
        <time>2021-01-20T13:11:15Z</time>
      </trkpt>
      <trkpt lat="46.10722" lon="3.48185">
        <ele>445</ele>
        <time>2021-01-20T13:11:27Z</time>
      </trkpt>
      <trkpt lat="46.10724" lon="3.48186">
        <ele>444.4</ele>
        <time>2021-01-20T13:11:33Z</time>
      </trkpt>
      <trkpt lat="46.10726" lon="3.48188">
        <ele>443.6</ele>
        <time>2021-01-20T13:11:41Z</time>
      </trkpt>
      <trkpt lat="46.10728" lon="3.48189">
        <ele>443</ele>
        <time>2021-01-20T13:11:45Z</time>
      </trkpt>
      <trkpt lat="46.1073" lon="3.48187">
        <ele>441.6</ele>
        <time>2021-01-20T13:11:54Z</time>
      </trkpt>
      <trkpt lat="46.10732" lon="3.48184">
        <ele>442.4</ele>
        <time>2021-01-20T13:11:57Z</time>
      </trkpt>
      <trkpt lat="46.10734" lon="3.48182">
        <ele>442.8</ele>
        <time>2021-01-20T13:11:59Z</time>
      </trkpt>
      <trkpt lat="46.10732" lon="3.48182">
        <ele>442.8</ele>
        <time>2021-01-20T13:12:05Z</time>
      </trkpt>
      <trkpt lat="46.10733" lon="3.48179">
        <ele>441.8</ele>
        <time>2021-01-20T13:12:18Z</time>
      </trkpt>
      <trkpt lat="46.10735" lon="3.48177">
        <ele>441</ele>
        <time>2021-01-20T13:12:21Z</time>
      </trkpt>
      <trkpt lat="46.10736" lon="3.48175">
        <ele>440</ele>
        <time>2021-01-20T13:12:24Z</time>
      </trkpt>
      <trkpt lat="46.10738" lon="3.48174">
        <ele>439.4</ele>
        <time>2021-01-20T13:12:26Z</time>
      </trkpt>
      <trkpt lat="46.10741" lon="3.48174">
        <ele>439</ele>
        <time>2021-01-20T13:12:28Z</time>
      </trkpt>
      <trkpt lat="46.10743" lon="3.48174">
        <ele>438.6</ele>
        <time>2021-01-20T13:12:30Z</time>
      </trkpt>
      <trkpt lat="46.10745" lon="3.48173">
        <ele>437.2</ele>
        <time>2021-01-20T13:12:33Z</time>
      </trkpt>
      <trkpt lat="46.10748" lon="3.48172">
        <ele>437</ele>
        <time>2021-01-20T13:12:35Z</time>
      </trkpt>
      <trkpt lat="46.10749" lon="3.48169">
        <ele>436.2</ele>
        <time>2021-01-20T13:12:38Z</time>
      </trkpt>
      <trkpt lat="46.10752" lon="3.48168">
        <ele>435.4</ele>
        <time>2021-01-20T13:12:41Z</time>
      </trkpt>
      <trkpt lat="46.10753" lon="3.4817">
        <ele>435.2</ele>
        <time>2021-01-20T13:12:44Z</time>
      </trkpt>
      <trkpt lat="46.10756" lon="3.4817">
        <ele>437.4</ele>
        <time>2021-01-20T13:12:58Z</time>
      </trkpt>
      <trkpt lat="46.10757" lon="3.48172">
        <ele>438.2</ele>
        <time>2021-01-20T13:13:15Z</time>
      </trkpt>
      <trkpt lat="46.10757" lon="3.48175">
        <ele>438.8</ele>
        <time>2021-01-20T13:13:18Z</time>
      </trkpt>
      <trkpt lat="46.10759" lon="3.48174">
        <ele>439.2</ele>
        <time>2021-01-20T13:13:32Z</time>
      </trkpt>
      <trkpt lat="46.10757" lon="3.48174">
        <ele>438.2</ele>
        <time>2021-01-20T13:13:41Z</time>
      </trkpt>
      <trkpt lat="46.10758" lon="3.48176">
        <ele>438.8</ele>
        <time>2021-01-20T13:13:49Z</time>
      </trkpt>
      <trkpt lat="46.1076" lon="3.48178">
        <ele>437.2</ele>
        <time>2021-01-20T13:13:56Z</time>
      </trkpt>
      <trkpt lat="46.10762" lon="3.48177">
        <ele>436.6</ele>
        <time>2021-01-20T13:13:59Z</time>
      </trkpt>
      <trkpt lat="46.10765" lon="3.48178">
        <ele>435</ele>
        <time>2021-01-20T13:14:02Z</time>
      </trkpt>
      <trkpt lat="46.10763" lon="3.48177">
        <ele>434.4</ele>
        <time>2021-01-20T13:14:06Z</time>
      </trkpt>
      <trkpt lat="46.10761" lon="3.48175">
        <ele>434.4</ele>
        <time>2021-01-20T13:14:09Z</time>
      </trkpt>
      <trkpt lat="46.10759" lon="3.48176">
        <ele>433</ele>
        <time>2021-01-20T13:14:15Z</time>
      </trkpt>
      <trkpt lat="46.10762" lon="3.48184">
        <ele>431.6</ele>
        <time>2021-01-20T13:14:21Z</time>
      </trkpt>
      <trkpt lat="46.10764" lon="3.48186">
        <ele>430.4</ele>
        <time>2021-01-20T13:14:24Z</time>
      </trkpt>
      <trkpt lat="46.10766" lon="3.48183">
        <ele>429</ele>
        <time>2021-01-20T13:14:28Z</time>
      </trkpt>
      <trkpt lat="46.10768" lon="3.48183">
        <ele>427.8</ele>
        <time>2021-01-20T13:14:41Z</time>
      </trkpt>
      <trkpt lat="46.1077" lon="3.48184">
        <ele>427.2</ele>
        <time>2021-01-20T13:14:43Z</time>
      </trkpt>
      <trkpt lat="46.1077" lon="3.48187">
        <ele>425.2</ele>
        <time>2021-01-20T13:14:47Z</time>
      </trkpt>
      <trkpt lat="46.10771" lon="3.48189">
        <ele>422.4</ele>
        <time>2021-01-20T13:14:56Z</time>
      </trkpt>
      <trkpt lat="46.10772" lon="3.48185">
        <ele>423.2</ele>
        <time>2021-01-20T13:15:04Z</time>
      </trkpt>
      <trkpt lat="46.10774" lon="3.48182">
        <ele>422.8</ele>
        <time>2021-01-20T13:15:06Z</time>
      </trkpt>
      <trkpt lat="46.10775" lon="3.48178">
        <ele>422.6</ele>
        <time>2021-01-20T13:15:08Z</time>
      </trkpt>
      <trkpt lat="46.10777" lon="3.48177">
        <ele>422</ele>
        <time>2021-01-20T13:15:10Z</time>
      </trkpt>
      <trkpt lat="46.1078" lon="3.48175">
        <ele>421</ele>
        <time>2021-01-20T13:15:13Z</time>
      </trkpt>
      <trkpt lat="46.10782" lon="3.48174">
        <ele>420.2</ele>
        <time>2021-01-20T13:15:15Z</time>
      </trkpt>
      <trkpt lat="46.10784" lon="3.48171">
        <ele>418.8</ele>
        <time>2021-01-20T13:15:17Z</time>
      </trkpt>
      <trkpt lat="46.10786" lon="3.48168">
        <ele>418.2</ele>
        <time>2021-01-20T13:15:19Z</time>
      </trkpt>
      <trkpt lat="46.10788" lon="3.48165">
        <ele>417.2</ele>
        <time>2021-01-20T13:15:21Z</time>
      </trkpt>
      <trkpt lat="46.10789" lon="3.48162">
        <ele>416.4</ele>
        <time>2021-01-20T13:15:23Z</time>
      </trkpt>
      <trkpt lat="46.10791" lon="3.48162">
        <ele>417</ele>
        <time>2021-01-20T13:15:26Z</time>
      </trkpt>
      <trkpt lat="46.10793" lon="3.48168">
        <ele>418</ele>
        <time>2021-01-20T13:15:38Z</time>
      </trkpt>
      <trkpt lat="46.10791" lon="3.48168">
        <ele>417.2</ele>
        <time>2021-01-20T13:15:40Z</time>
      </trkpt>
      <trkpt lat="46.10788" lon="3.4817">
        <ele>416.8</ele>
        <time>2021-01-20T13:15:42Z</time>
      </trkpt>
      <trkpt lat="46.10786" lon="3.48169">
        <ele>417.4</ele>
        <time>2021-01-20T13:15:52Z</time>
      </trkpt>
      <trkpt lat="46.10785" lon="3.48168">
        <ele>417.4</ele>
        <time>2021-01-20T13:15:56Z</time>
      </trkpt>
      <trkpt lat="46.10786" lon="3.48165">
        <ele>416.8</ele>
        <time>2021-01-20T13:16:06Z</time>
      </trkpt>
      <trkpt lat="46.10789" lon="3.48164">
        <ele>416.4</ele>
        <time>2021-01-20T13:16:11Z</time>
      </trkpt>
      <trkpt lat="46.10791" lon="3.48163">
        <ele>416.4</ele>
        <time>2021-01-20T13:16:13Z</time>
      </trkpt>
      <trkpt lat="46.10791" lon="3.4816">
        <ele>416</ele>
        <time>2021-01-20T13:16:15Z</time>
      </trkpt>
      <trkpt lat="46.10792" lon="3.48157">
        <ele>415.8</ele>
        <time>2021-01-20T13:16:18Z</time>
      </trkpt>
      <trkpt lat="46.10792" lon="3.48152">
        <ele>416.6</ele>
        <time>2021-01-20T13:16:21Z</time>
      </trkpt>
      <trkpt lat="46.10792" lon="3.48149">
        <ele>417</ele>
        <time>2021-01-20T13:16:22Z</time>
      </trkpt>
      <trkpt lat="46.10794" lon="3.48135">
        <ele>420.6</ele>
        <time>2021-01-20T13:16:28Z</time>
      </trkpt>
      <trkpt lat="46.10792" lon="3.48119">
        <ele>422.4</ele>
        <time>2021-01-20T13:16:35Z</time>
      </trkpt>
      <trkpt lat="46.10792" lon="3.48116">
        <ele>422.6</ele>
        <time>2021-01-20T13:16:36Z</time>
      </trkpt>
      <trkpt lat="46.10791" lon="3.48112">
        <ele>422.8</ele>
        <time>2021-01-20T13:16:37Z</time>
      </trkpt>
      <trkpt lat="46.10791" lon="3.4811">
        <ele>423.4</ele>
        <time>2021-01-20T13:16:38Z</time>
      </trkpt>
      <trkpt lat="46.1079" lon="3.48107">
        <ele>423.8</ele>
        <time>2021-01-20T13:16:39Z</time>
      </trkpt>
      <trkpt lat="46.1079" lon="3.48102">
        <ele>423.8</ele>
        <time>2021-01-20T13:16:41Z</time>
      </trkpt>
      <trkpt lat="46.1079" lon="3.48099">
        <ele>424</ele>
        <time>2021-01-20T13:16:43Z</time>
      </trkpt>
      <trkpt lat="46.1079" lon="3.48095">
        <ele>424.6</ele>
        <time>2021-01-20T13:16:45Z</time>
      </trkpt>
      <trkpt lat="46.1079" lon="3.48091">
        <ele>427.8</ele>
        <time>2021-01-20T13:16:53Z</time>
      </trkpt>
      <trkpt lat="46.1079" lon="3.48089">
        <ele>428.6</ele>
        <time>2021-01-20T13:16:55Z</time>
      </trkpt>
      <trkpt lat="46.10789" lon="3.48085">
        <ele>429</ele>
        <time>2021-01-20T13:16:57Z</time>
      </trkpt>
      <trkpt lat="46.10789" lon="3.48082">
        <ele>429.2</ele>
        <time>2021-01-20T13:16:59Z</time>
      </trkpt>
      <trkpt lat="46.10789" lon="3.48079">
        <ele>430</ele>
        <time>2021-01-20T13:17:02Z</time>
      </trkpt>
      <trkpt lat="46.10788" lon="3.48076">
        <ele>430.6</ele>
        <time>2021-01-20T13:17:05Z</time>
      </trkpt>
      <trkpt lat="46.10786" lon="3.48076">
        <ele>431.6</ele>
        <time>2021-01-20T13:17:09Z</time>
      </trkpt>
      <trkpt lat="46.10787" lon="3.48073">
        <ele>433.6</ele>
        <time>2021-01-20T13:17:16Z</time>
      </trkpt>
      <trkpt lat="46.1079" lon="3.48074">
        <ele>433.2</ele>
        <time>2021-01-20T13:17:20Z</time>
      </trkpt>
      <trkpt lat="46.10791" lon="3.48075">
        <ele>434.6</ele>
        <time>2021-01-20T13:17:29Z</time>
      </trkpt>
      <trkpt lat="46.10793" lon="3.48075">
        <ele>435.6</ele>
        <time>2021-01-20T13:17:41Z</time>
      </trkpt>
      <trkpt lat="46.10796" lon="3.48073">
        <ele>435.6</ele>
        <time>2021-01-20T13:17:45Z</time>
      </trkpt>
      <trkpt lat="46.10797" lon="3.48071">
        <ele>434.8</ele>
        <time>2021-01-20T13:17:52Z</time>
      </trkpt>
      <trkpt lat="46.10795" lon="3.48068">
        <ele>434.2</ele>
        <time>2021-01-20T13:17:57Z</time>
      </trkpt>
      <trkpt lat="46.10794" lon="3.48067">
        <ele>434</ele>
        <time>2021-01-20T13:18:02Z</time>
      </trkpt>
      <trkpt lat="46.10796" lon="3.48063">
        <ele>432.6</ele>
        <time>2021-01-20T13:18:11Z</time>
      </trkpt>
      <trkpt lat="46.10795" lon="3.4806">
        <ele>431.6</ele>
        <time>2021-01-20T13:18:15Z</time>
      </trkpt>
      <trkpt lat="46.10794" lon="3.48058">
        <ele>431.2</ele>
        <time>2021-01-20T13:18:17Z</time>
      </trkpt>
      <trkpt lat="46.10792" lon="3.48056">
        <ele>432.2</ele>
        <time>2021-01-20T13:18:20Z</time>
      </trkpt>
      <trkpt lat="46.10791" lon="3.48054">
        <ele>434</ele>
        <time>2021-01-20T13:18:23Z</time>
      </trkpt>
      <trkpt lat="46.10791" lon="3.4805">
        <ele>435.2</ele>
        <time>2021-01-20T13:18:26Z</time>
      </trkpt>
      <trkpt lat="46.10792" lon="3.48046">
        <ele>435</ele>
        <time>2021-01-20T13:18:28Z</time>
      </trkpt>
      <trkpt lat="46.10793" lon="3.48043">
        <ele>434.8</ele>
        <time>2021-01-20T13:18:30Z</time>
      </trkpt>
      <trkpt lat="46.10795" lon="3.48041">
        <ele>434.2</ele>
        <time>2021-01-20T13:18:32Z</time>
      </trkpt>
      <trkpt lat="46.10797" lon="3.48038">
        <ele>433.8</ele>
        <time>2021-01-20T13:18:34Z</time>
      </trkpt>
      <trkpt lat="46.10799" lon="3.48035">
        <ele>432.6</ele>
        <time>2021-01-20T13:18:36Z</time>
      </trkpt>
      <trkpt lat="46.10802" lon="3.48031">
        <ele>431.8</ele>
        <time>2021-01-20T13:18:38Z</time>
      </trkpt>
      <trkpt lat="46.10803" lon="3.48029">
        <ele>432</ele>
        <time>2021-01-20T13:18:39Z</time>
      </trkpt>
      <trkpt lat="46.10804" lon="3.48027">
        <ele>431.4</ele>
        <time>2021-01-20T13:18:40Z</time>
      </trkpt>
      <trkpt lat="46.10805" lon="3.48024">
        <ele>431.4</ele>
        <time>2021-01-20T13:18:42Z</time>
      </trkpt>
      <trkpt lat="46.10806" lon="3.48022">
        <ele>431.2</ele>
        <time>2021-01-20T13:18:44Z</time>
      </trkpt>
      <trkpt lat="46.10805" lon="3.48019">
        <ele>431.8</ele>
        <time>2021-01-20T13:18:57Z</time>
      </trkpt>
      <trkpt lat="46.10804" lon="3.48016">
        <ele>431.6</ele>
        <time>2021-01-20T13:19:01Z</time>
      </trkpt>
      <trkpt lat="46.10805" lon="3.48014">
        <ele>431.4</ele>
        <time>2021-01-20T13:19:06Z</time>
      </trkpt>
      <trkpt lat="46.10804" lon="3.48011">
        <ele>431.2</ele>
        <time>2021-01-20T13:19:18Z</time>
      </trkpt>
      <trkpt lat="46.10804" lon="3.48009">
        <ele>430.2</ele>
        <time>2021-01-20T13:19:30Z</time>
      </trkpt>
      <trkpt lat="46.10802" lon="3.48007">
        <ele>429.8</ele>
        <time>2021-01-20T13:19:34Z</time>
      </trkpt>
      <trkpt lat="46.10801" lon="3.48004">
        <ele>429.2</ele>
        <time>2021-01-20T13:19:38Z</time>
      </trkpt>
      <trkpt lat="46.108" lon="3.48005">
        <ele>429</ele>
        <time>2021-01-20T13:19:51Z</time>
      </trkpt>
      <trkpt lat="46.10801" lon="3.48004">
        <ele>430</ele>
        <time>2021-01-20T13:20:42Z</time>
      </trkpt>
      <trkpt lat="46.10803" lon="3.48002">
        <ele>432</ele>
        <time>2021-01-20T13:20:49Z</time>
      </trkpt>
      <trkpt lat="46.10805" lon="3.48">
        <ele>432</ele>
        <time>2021-01-20T13:20:52Z</time>
      </trkpt>
      <trkpt lat="46.10806" lon="3.47998">
        <ele>431.8</ele>
        <time>2021-01-20T13:20:55Z</time>
      </trkpt>
      <trkpt lat="46.10807" lon="3.47996">
        <ele>431.6</ele>
        <time>2021-01-20T13:20:57Z</time>
      </trkpt>
      <trkpt lat="46.10809" lon="3.47993">
        <ele>431.2</ele>
        <time>2021-01-20T13:20:59Z</time>
      </trkpt>
      <trkpt lat="46.10811" lon="3.4799">
        <ele>431</ele>
        <time>2021-01-20T13:21:01Z</time>
      </trkpt>
      <trkpt lat="46.10812" lon="3.47988">
        <ele>430.6</ele>
        <time>2021-01-20T13:21:03Z</time>
      </trkpt>
      <trkpt lat="46.10814" lon="3.47985">
        <ele>431</ele>
        <time>2021-01-20T13:21:05Z</time>
      </trkpt>
      <trkpt lat="46.10815" lon="3.47983">
        <ele>431.2</ele>
        <time>2021-01-20T13:21:07Z</time>
      </trkpt>
      <trkpt lat="46.10817" lon="3.4798">
        <ele>431.6</ele>
        <time>2021-01-20T13:21:09Z</time>
      </trkpt>
      <trkpt lat="46.10819" lon="3.47977">
        <ele>432.2</ele>
        <time>2021-01-20T13:21:11Z</time>
      </trkpt>
      <trkpt lat="46.1082" lon="3.47975">
        <ele>432.6</ele>
        <time>2021-01-20T13:21:13Z</time>
      </trkpt>
      <trkpt lat="46.10821" lon="3.47972">
        <ele>432.6</ele>
        <time>2021-01-20T13:21:15Z</time>
      </trkpt>
      <trkpt lat="46.10822" lon="3.4797">
        <ele>432.4</ele>
        <time>2021-01-20T13:21:17Z</time>
      </trkpt>
      <trkpt lat="46.10824" lon="3.47968">
        <ele>432.6</ele>
        <time>2021-01-20T13:21:19Z</time>
      </trkpt>
      <trkpt lat="46.10825" lon="3.47966">
        <ele>433</ele>
        <time>2021-01-20T13:21:21Z</time>
      </trkpt>
      <trkpt lat="46.10827" lon="3.47964">
        <ele>433.8</ele>
        <time>2021-01-20T13:21:23Z</time>
      </trkpt>
      <trkpt lat="46.10828" lon="3.47962">
        <ele>434.6</ele>
        <time>2021-01-20T13:21:26Z</time>
      </trkpt>
      <trkpt lat="46.10828" lon="3.47959">
        <ele>434.8</ele>
        <time>2021-01-20T13:21:28Z</time>
      </trkpt>
      <trkpt lat="46.10827" lon="3.47956">
        <ele>435.2</ele>
        <time>2021-01-20T13:21:31Z</time>
      </trkpt>
      <trkpt lat="46.10826" lon="3.47954">
        <ele>436</ele>
        <time>2021-01-20T13:21:34Z</time>
      </trkpt>
      <trkpt lat="46.10827" lon="3.47951">
        <ele>438.6</ele>
        <time>2021-01-20T13:21:42Z</time>
      </trkpt>
      <trkpt lat="46.10828" lon="3.47948">
        <ele>438.2</ele>
        <time>2021-01-20T13:21:46Z</time>
      </trkpt>
      <trkpt lat="46.1083" lon="3.47944">
        <ele>438.2</ele>
        <time>2021-01-20T13:21:48Z</time>
      </trkpt>
      <trkpt lat="46.10831" lon="3.47942">
        <ele>438.4</ele>
        <time>2021-01-20T13:21:50Z</time>
      </trkpt>
      <trkpt lat="46.10831" lon="3.47938">
        <ele>438.2</ele>
        <time>2021-01-20T13:21:52Z</time>
      </trkpt>
      <trkpt lat="46.10832" lon="3.47934">
        <ele>438</ele>
        <time>2021-01-20T13:21:54Z</time>
      </trkpt>
      <trkpt lat="46.10833" lon="3.47931">
        <ele>437.6</ele>
        <time>2021-01-20T13:21:56Z</time>
      </trkpt>
      <trkpt lat="46.10832" lon="3.47927">
        <ele>437.8</ele>
        <time>2021-01-20T13:21:59Z</time>
      </trkpt>
      <trkpt lat="46.10831" lon="3.47925">
        <ele>438</ele>
        <time>2021-01-20T13:22:01Z</time>
      </trkpt>
      <trkpt lat="46.10831" lon="3.47922">
        <ele>438.2</ele>
        <time>2021-01-20T13:22:03Z</time>
      </trkpt>
      <trkpt lat="46.10831" lon="3.47919">
        <ele>438.2</ele>
        <time>2021-01-20T13:22:05Z</time>
      </trkpt>
      <trkpt lat="46.10832" lon="3.47916">
        <ele>438</ele>
        <time>2021-01-20T13:22:07Z</time>
      </trkpt>
      <trkpt lat="46.10833" lon="3.47912">
        <ele>438.2</ele>
        <time>2021-01-20T13:22:09Z</time>
      </trkpt>
      <trkpt lat="46.10835" lon="3.47906">
        <ele>438.4</ele>
        <time>2021-01-20T13:22:13Z</time>
      </trkpt>
      <trkpt lat="46.10834" lon="3.47903">
        <ele>438.4</ele>
        <time>2021-01-20T13:22:15Z</time>
      </trkpt>
      <trkpt lat="46.1083" lon="3.47899">
        <ele>438.8</ele>
        <time>2021-01-20T13:22:20Z</time>
      </trkpt>
      <trkpt lat="46.10828" lon="3.47898">
        <ele>438.8</ele>
        <time>2021-01-20T13:22:22Z</time>
      </trkpt>
      <trkpt lat="46.10828" lon="3.47895">
        <ele>439</ele>
        <time>2021-01-20T13:22:27Z</time>
      </trkpt>
      <trkpt lat="46.10828" lon="3.47892">
        <ele>439.6</ele>
        <time>2021-01-20T13:22:31Z</time>
      </trkpt>
      <trkpt lat="46.10827" lon="3.47888">
        <ele>440</ele>
        <time>2021-01-20T13:22:34Z</time>
      </trkpt>
      <trkpt lat="46.10828" lon="3.47886">
        <ele>440.4</ele>
        <time>2021-01-20T13:22:41Z</time>
      </trkpt>
      <trkpt lat="46.10829" lon="3.47883">
        <ele>440</ele>
        <time>2021-01-20T13:22:45Z</time>
      </trkpt>
      <trkpt lat="46.1083" lon="3.47881">
        <ele>439</ele>
        <time>2021-01-20T13:22:49Z</time>
      </trkpt>
      <trkpt lat="46.10831" lon="3.47877">
        <ele>438.4</ele>
        <time>2021-01-20T13:22:52Z</time>
      </trkpt>
      <trkpt lat="46.10835" lon="3.47865">
        <ele>436.6</ele>
        <time>2021-01-20T13:22:57Z</time>
      </trkpt>
      <trkpt lat="46.1084" lon="3.47852">
        <ele>437.4</ele>
        <time>2021-01-20T13:23:02Z</time>
      </trkpt>
      <trkpt lat="46.10847" lon="3.47841">
        <ele>436</ele>
        <time>2021-01-20T13:23:07Z</time>
      </trkpt>
      <trkpt lat="46.10856" lon="3.47833">
        <ele>434</ele>
        <time>2021-01-20T13:23:12Z</time>
      </trkpt>
      <trkpt lat="46.10864" lon="3.47827">
        <ele>433</ele>
        <time>2021-01-20T13:23:16Z</time>
      </trkpt>
      <trkpt lat="46.10871" lon="3.47819">
        <ele>432</ele>
        <time>2021-01-20T13:23:20Z</time>
      </trkpt>
      <trkpt lat="46.10879" lon="3.47811">
        <ele>431.6</ele>
        <time>2021-01-20T13:23:23Z</time>
      </trkpt>
      <trkpt lat="46.10887" lon="3.47805">
        <ele>430.4</ele>
        <time>2021-01-20T13:23:26Z</time>
      </trkpt>
      <trkpt lat="46.10896" lon="3.47798">
        <ele>428.6</ele>
        <time>2021-01-20T13:23:31Z</time>
      </trkpt>
      <trkpt lat="46.10905" lon="3.47794">
        <ele>428.4</ele>
        <time>2021-01-20T13:23:37Z</time>
      </trkpt>
      <trkpt lat="46.10916" lon="3.47789">
        <ele>428.6</ele>
        <time>2021-01-20T13:23:42Z</time>
      </trkpt>
      <trkpt lat="46.10927" lon="3.47783">
        <ele>427</ele>
        <time>2021-01-20T13:23:47Z</time>
      </trkpt>
      <trkpt lat="46.10937" lon="3.47777">
        <ele>425.2</ele>
        <time>2021-01-20T13:23:51Z</time>
      </trkpt>
      <trkpt lat="46.10946" lon="3.47774">
        <ele>424</ele>
        <time>2021-01-20T13:23:55Z</time>
      </trkpt>
      <trkpt lat="46.10957" lon="3.47768">
        <ele>422.6</ele>
        <time>2021-01-20T13:23:59Z</time>
      </trkpt>
      <trkpt lat="46.10968" lon="3.47763">
        <ele>421.8</ele>
        <time>2021-01-20T13:24:03Z</time>
      </trkpt>
      <trkpt lat="46.10975" lon="3.4776">
        <ele>420.4</ele>
        <time>2021-01-20T13:24:06Z</time>
      </trkpt>
      <trkpt lat="46.10979" lon="3.47757">
        <ele>418.6</ele>
        <time>2021-01-20T13:24:10Z</time>
      </trkpt>
      <trkpt lat="46.10981" lon="3.47755">
        <ele>418.8</ele>
        <time>2021-01-20T13:24:11Z</time>
      </trkpt>
      <trkpt lat="46.10985" lon="3.47754">
        <ele>418.6</ele>
        <time>2021-01-20T13:24:13Z</time>
      </trkpt>
      <trkpt lat="46.10988" lon="3.47753">
        <ele>418.4</ele>
        <time>2021-01-20T13:24:14Z</time>
      </trkpt>
      <trkpt lat="46.10991" lon="3.47753">
        <ele>418.8</ele>
        <time>2021-01-20T13:24:15Z</time>
      </trkpt>
      <trkpt lat="46.10994" lon="3.47752">
        <ele>418.2</ele>
        <time>2021-01-20T13:24:16Z</time>
      </trkpt>
      <trkpt lat="46.10996" lon="3.47752">
        <ele>418.4</ele>
        <time>2021-01-20T13:24:17Z</time>
      </trkpt>
      <trkpt lat="46.10999" lon="3.47752">
        <ele>417.8</ele>
        <time>2021-01-20T13:24:18Z</time>
      </trkpt>
      <trkpt lat="46.11002" lon="3.47752">
        <ele>417.2</ele>
        <time>2021-01-20T13:24:19Z</time>
      </trkpt>
      <trkpt lat="46.11008" lon="3.47749">
        <ele>416</ele>
        <time>2021-01-20T13:24:23Z</time>
      </trkpt>
      <trkpt lat="46.11011" lon="3.47747">
        <ele>415.6</ele>
        <time>2021-01-20T13:24:24Z</time>
      </trkpt>
      <trkpt lat="46.11013" lon="3.47746">
        <ele>415.2</ele>
        <time>2021-01-20T13:24:25Z</time>
      </trkpt>
      <trkpt lat="46.11014" lon="3.47745">
        <ele>415</ele>
        <time>2021-01-20T13:24:26Z</time>
      </trkpt>
      <trkpt lat="46.11016" lon="3.47743">
        <ele>414.6</ele>
        <time>2021-01-20T13:24:28Z</time>
      </trkpt>
      <trkpt lat="46.11018" lon="3.47742">
        <ele>415</ele>
        <time>2021-01-20T13:24:29Z</time>
      </trkpt>
      <trkpt lat="46.11021" lon="3.47738">
        <ele>415.2</ele>
        <time>2021-01-20T13:24:31Z</time>
      </trkpt>
      <trkpt lat="46.11023" lon="3.47736">
        <ele>414.8</ele>
        <time>2021-01-20T13:24:33Z</time>
      </trkpt>
      <trkpt lat="46.11024" lon="3.47733">
        <ele>414.8</ele>
        <time>2021-01-20T13:24:35Z</time>
      </trkpt>
      <trkpt lat="46.11026" lon="3.47731">
        <ele>414</ele>
        <time>2021-01-20T13:24:41Z</time>
      </trkpt>
      <trkpt lat="46.11027" lon="3.47733">
        <ele>414</ele>
        <time>2021-01-20T13:24:44Z</time>
      </trkpt>
      <trkpt lat="46.11028" lon="3.47736">
        <ele>414.2</ele>
        <time>2021-01-20T13:24:46Z</time>
      </trkpt>
      <trkpt lat="46.11029" lon="3.47738">
        <ele>414.2</ele>
        <time>2021-01-20T13:24:49Z</time>
      </trkpt>
      <trkpt lat="46.1103" lon="3.47741">
        <ele>414.4</ele>
        <time>2021-01-20T13:24:51Z</time>
      </trkpt>
      <trkpt lat="46.11028" lon="3.47742">
        <ele>414</ele>
        <time>2021-01-20T13:24:53Z</time>
      </trkpt>
      <trkpt lat="46.11026" lon="3.47741">
        <ele>414.2</ele>
        <time>2021-01-20T13:24:55Z</time>
      </trkpt>
      <trkpt lat="46.11027" lon="3.47744">
        <ele>414.4</ele>
        <time>2021-01-20T13:25:02Z</time>
      </trkpt>
      <trkpt lat="46.11028" lon="3.47742">
        <ele>413.4</ele>
        <time>2021-01-20T13:25:07Z</time>
      </trkpt>
      <trkpt lat="46.1103" lon="3.47741">
        <ele>412.8</ele>
        <time>2021-01-20T13:25:11Z</time>
      </trkpt>
      <trkpt lat="46.11031" lon="3.47739">
        <ele>413</ele>
        <time>2021-01-20T13:25:16Z</time>
      </trkpt>
      <trkpt lat="46.11032" lon="3.47737">
        <ele>414.2</ele>
        <time>2021-01-20T13:25:21Z</time>
      </trkpt>
      <trkpt lat="46.1103" lon="3.47735">
        <ele>415</ele>
        <time>2021-01-20T13:25:39Z</time>
      </trkpt>
      <trkpt lat="46.11028" lon="3.47735">
        <ele>413</ele>
        <time>2021-01-20T13:25:45Z</time>
      </trkpt>
      <trkpt lat="46.11028" lon="3.47732">
        <ele>412.8</ele>
        <time>2021-01-20T13:25:52Z</time>
      </trkpt>
      <trkpt lat="46.1103" lon="3.47733">
        <ele>414.6</ele>
        <time>2021-01-20T13:26:09Z</time>
      </trkpt>
      <trkpt lat="46.11029" lon="3.47735">
        <ele>414.4</ele>
        <time>2021-01-20T13:26:31Z</time>
      </trkpt>
      <trkpt lat="46.11027" lon="3.47735">
        <ele>414.8</ele>
        <time>2021-01-20T13:26:39Z</time>
      </trkpt>
      <trkpt lat="46.11029" lon="3.47734">
        <ele>412.2</ele>
        <time>2021-01-20T13:27:00Z</time>
      </trkpt>
      <trkpt lat="46.11027" lon="3.47733">
        <ele>411.6</ele>
        <time>2021-01-20T13:27:36Z</time>
      </trkpt>
      <trkpt lat="46.11026" lon="3.47731">
        <ele>411.6</ele>
        <time>2021-01-20T13:27:39Z</time>
      </trkpt>
      <trkpt lat="46.11024" lon="3.47732">
        <ele>411.8</ele>
        <time>2021-01-20T13:27:42Z</time>
      </trkpt>
      <trkpt lat="46.11023" lon="3.4773">
        <ele>413.8</ele>
        <time>2021-01-20T13:27:50Z</time>
      </trkpt>
      <trkpt lat="46.11023" lon="3.47734">
        <ele>415.2</ele>
        <time>2021-01-20T13:28:00Z</time>
      </trkpt>
      <trkpt lat="46.11024" lon="3.47736">
        <ele>415.2</ele>
        <time>2021-01-20T13:28:01Z</time>
      </trkpt>
      <trkpt lat="46.11025" lon="3.47741">
        <ele>415.4</ele>
        <time>2021-01-20T13:28:03Z</time>
      </trkpt>
      <trkpt lat="46.11026" lon="3.47744">
        <ele>415.2</ele>
        <time>2021-01-20T13:28:04Z</time>
      </trkpt>
      <trkpt lat="46.11028" lon="3.47747">
        <ele>415</ele>
        <time>2021-01-20T13:28:09Z</time>
      </trkpt>
      <trkpt lat="46.11029" lon="3.47749">
        <ele>414.4</ele>
        <time>2021-01-20T13:28:19Z</time>
      </trkpt>
      <trkpt lat="46.11028" lon="3.47747">
        <ele>414.6</ele>
        <time>2021-01-20T13:28:27Z</time>
      </trkpt>
      <trkpt lat="46.11026" lon="3.47745">
        <ele>416</ele>
        <time>2021-01-20T13:28:35Z</time>
      </trkpt>
      <trkpt lat="46.11028" lon="3.47742">
        <ele>413.2</ele>
        <time>2021-01-20T13:28:48Z</time>
      </trkpt>
      <trkpt lat="46.11027" lon="3.4774">
        <ele>412.6</ele>
        <time>2021-01-20T13:29:03Z</time>
      </trkpt>
      <trkpt lat="46.11025" lon="3.47738">
        <ele>412</ele>
        <time>2021-01-20T13:29:08Z</time>
      </trkpt>
      <trkpt lat="46.11023" lon="3.47738">
        <ele>409.8</ele>
        <time>2021-01-20T13:29:16Z</time>
      </trkpt>
      <trkpt lat="46.11022" lon="3.4774">
        <ele>407.8</ele>
        <time>2021-01-20T13:29:28Z</time>
      </trkpt>
      <trkpt lat="46.11021" lon="3.47738">
        <ele>397.6</ele>
        <time>2021-01-20T13:30:22Z</time>
      </trkpt>
      <trkpt lat="46.11023" lon="3.47737">
        <ele>395.4</ele>
        <time>2021-01-20T13:30:37Z</time>
      </trkpt>
      <trkpt lat="46.11024" lon="3.47739">
        <ele>396.6</ele>
        <time>2021-01-20T13:31:32Z</time>
      </trkpt>
      <trkpt lat="46.11025" lon="3.47742">
        <ele>397.6</ele>
        <time>2021-01-20T13:31:35Z</time>
      </trkpt>
      <trkpt lat="46.11026" lon="3.47745">
        <ele>398.2</ele>
        <time>2021-01-20T13:31:39Z</time>
      </trkpt>
      <trkpt lat="46.11028" lon="3.47747">
        <ele>399</ele>
        <time>2021-01-20T13:31:42Z</time>
      </trkpt>
      <trkpt lat="46.1103" lon="3.47747">
        <ele>399.2</ele>
        <time>2021-01-20T13:31:46Z</time>
      </trkpt>
      <trkpt lat="46.11032" lon="3.47747">
        <ele>399.6</ele>
        <time>2021-01-20T13:31:48Z</time>
      </trkpt>
      <trkpt lat="46.11034" lon="3.47745">
        <ele>401.4</ele>
        <time>2021-01-20T13:31:52Z</time>
      </trkpt>
      <trkpt lat="46.11032" lon="3.47742">
        <ele>401.8</ele>
        <time>2021-01-20T13:31:54Z</time>
      </trkpt>
      <trkpt lat="46.11031" lon="3.47738">
        <ele>401.8</ele>
        <time>2021-01-20T13:31:56Z</time>
      </trkpt>
      <trkpt lat="46.11031" lon="3.47736">
        <ele>401.8</ele>
        <time>2021-01-20T13:32:04Z</time>
      </trkpt>
      <trkpt lat="46.11028" lon="3.47735">
        <ele>402.6</ele>
        <time>2021-01-20T13:32:11Z</time>
      </trkpt>
      <trkpt lat="46.11025" lon="3.47736">
        <ele>402.4</ele>
        <time>2021-01-20T13:32:14Z</time>
      </trkpt>
      <trkpt lat="46.11025" lon="3.47739">
        <ele>403</ele>
        <time>2021-01-20T13:32:17Z</time>
      </trkpt>
      <trkpt lat="46.11025" lon="3.47736">
        <ele>409</ele>
        <time>2021-01-20T13:32:57Z</time>
      </trkpt>
      <trkpt lat="46.11025" lon="3.47739">
        <ele>411.2</ele>
        <time>2021-01-20T13:33:09Z</time>
      </trkpt>
      <trkpt lat="46.11026" lon="3.47736">
        <ele>412.4</ele>
        <time>2021-01-20T13:33:35Z</time>
      </trkpt>
      <trkpt lat="46.11027" lon="3.47734">
        <ele>412.2</ele>
        <time>2021-01-20T13:33:38Z</time>
      </trkpt>
      <trkpt lat="46.11028" lon="3.47739">
        <ele>412.6</ele>
        <time>2021-01-20T13:33:41Z</time>
      </trkpt>
      <trkpt lat="46.1103" lon="3.47739">
        <ele>412.8</ele>
        <time>2021-01-20T13:33:44Z</time>
      </trkpt>
      <trkpt lat="46.11032" lon="3.47741">
        <ele>414.8</ele>
        <time>2021-01-20T13:33:52Z</time>
      </trkpt>
      <trkpt lat="46.11032" lon="3.47745">
        <ele>415.2</ele>
        <time>2021-01-20T13:33:54Z</time>
      </trkpt>
      <trkpt lat="46.11033" lon="3.47748">
        <ele>415</ele>
        <time>2021-01-20T13:33:56Z</time>
      </trkpt>
      <trkpt lat="46.11032" lon="3.47752">
        <ele>414.8</ele>
        <time>2021-01-20T13:33:58Z</time>
      </trkpt>
      <trkpt lat="46.11034" lon="3.47755">
        <ele>415.6</ele>
        <time>2021-01-20T13:34:00Z</time>
      </trkpt>
      <trkpt lat="46.11035" lon="3.47759">
        <ele>416</ele>
        <time>2021-01-20T13:34:02Z</time>
      </trkpt>
      <trkpt lat="46.11035" lon="3.47761">
        <ele>416.4</ele>
        <time>2021-01-20T13:34:04Z</time>
      </trkpt>
      <trkpt lat="46.11036" lon="3.47765">
        <ele>416</ele>
        <time>2021-01-20T13:34:07Z</time>
      </trkpt>
      <trkpt lat="46.11036" lon="3.47769">
        <ele>416</ele>
        <time>2021-01-20T13:34:10Z</time>
      </trkpt>
      <trkpt lat="46.11037" lon="3.47772">
        <ele>415.8</ele>
        <time>2021-01-20T13:34:12Z</time>
      </trkpt>
      <trkpt lat="46.11038" lon="3.47775">
        <ele>415.4</ele>
        <time>2021-01-20T13:34:15Z</time>
      </trkpt>
      <trkpt lat="46.11038" lon="3.47779">
        <ele>414.4</ele>
        <time>2021-01-20T13:34:18Z</time>
      </trkpt>
      <trkpt lat="46.11037" lon="3.47783">
        <ele>414.4</ele>
        <time>2021-01-20T13:34:19Z</time>
      </trkpt>
      <trkpt lat="46.11039" lon="3.47786">
        <ele>414</ele>
        <time>2021-01-20T13:34:21Z</time>
      </trkpt>
      <trkpt lat="46.11038" lon="3.47789">
        <ele>414.4</ele>
        <time>2021-01-20T13:34:23Z</time>
      </trkpt>
      <trkpt lat="46.11037" lon="3.47792">
        <ele>414.6</ele>
        <time>2021-01-20T13:34:26Z</time>
      </trkpt>
      <trkpt lat="46.11037" lon="3.47794">
        <ele>414.4</ele>
        <time>2021-01-20T13:34:28Z</time>
      </trkpt>
      <trkpt lat="46.11038" lon="3.47797">
        <ele>414</ele>
        <time>2021-01-20T13:34:34Z</time>
      </trkpt>
      <trkpt lat="46.11036" lon="3.47799">
        <ele>419</ele>
        <time>2021-01-20T13:34:40Z</time>
      </trkpt>
      <trkpt lat="46.11034" lon="3.47798">
        <ele>419</ele>
        <time>2021-01-20T13:34:47Z</time>
      </trkpt>
      <trkpt lat="46.11034" lon="3.47795">
        <ele>419.6</ele>
        <time>2021-01-20T13:34:54Z</time>
      </trkpt>
      <trkpt lat="46.11034" lon="3.47792">
        <ele>420</ele>
        <time>2021-01-20T13:34:59Z</time>
      </trkpt>
      <trkpt lat="46.11036" lon="3.4779">
        <ele>420.6</ele>
        <time>2021-01-20T13:35:01Z</time>
      </trkpt>
      <trkpt lat="46.11037" lon="3.47787">
        <ele>420.8</ele>
        <time>2021-01-20T13:35:05Z</time>
      </trkpt>
      <trkpt lat="46.11038" lon="3.47785">
        <ele>420.8</ele>
        <time>2021-01-20T13:35:08Z</time>
      </trkpt>
      <trkpt lat="46.11039" lon="3.47781">
        <ele>421</ele>
        <time>2021-01-20T13:35:11Z</time>
      </trkpt>
      <trkpt lat="46.1104" lon="3.47778">
        <ele>420.8</ele>
        <time>2021-01-20T13:35:13Z</time>
      </trkpt>
      <trkpt lat="46.11042" lon="3.47776">
        <ele>420.4</ele>
        <time>2021-01-20T13:35:15Z</time>
      </trkpt>
      <trkpt lat="46.11045" lon="3.47774">
        <ele>419.8</ele>
        <time>2021-01-20T13:35:18Z</time>
      </trkpt>
      <trkpt lat="46.11047" lon="3.47772">
        <ele>419</ele>
        <time>2021-01-20T13:35:20Z</time>
      </trkpt>
      <trkpt lat="46.1105" lon="3.47771">
        <ele>418.4</ele>
        <time>2021-01-20T13:35:22Z</time>
      </trkpt>
      <trkpt lat="46.11052" lon="3.4777">
        <ele>417.8</ele>
        <time>2021-01-20T13:35:24Z</time>
      </trkpt>
      <trkpt lat="46.11055" lon="3.47771">
        <ele>417.6</ele>
        <time>2021-01-20T13:35:26Z</time>
      </trkpt>
      <trkpt lat="46.11056" lon="3.47772">
        <ele>417</ele>
        <time>2021-01-20T13:35:28Z</time>
      </trkpt>
      <trkpt lat="46.11058" lon="3.47774">
        <ele>417.2</ele>
        <time>2021-01-20T13:35:30Z</time>
      </trkpt>
      <trkpt lat="46.1106" lon="3.47775">
        <ele>417</ele>
        <time>2021-01-20T13:35:32Z</time>
      </trkpt>
      <trkpt lat="46.11062" lon="3.47775">
        <ele>417.2</ele>
        <time>2021-01-20T13:35:34Z</time>
      </trkpt>
      <trkpt lat="46.11064" lon="3.47776">
        <ele>417</ele>
        <time>2021-01-20T13:35:37Z</time>
      </trkpt>
      <trkpt lat="46.11067" lon="3.47775">
        <ele>414.2</ele>
        <time>2021-01-20T13:35:56Z</time>
      </trkpt>
      <trkpt lat="46.11069" lon="3.47774">
        <ele>413.8</ele>
        <time>2021-01-20T13:36:01Z</time>
      </trkpt>
      <trkpt lat="46.11072" lon="3.47774">
        <ele>413.2</ele>
        <time>2021-01-20T13:36:03Z</time>
      </trkpt>
      <trkpt lat="46.11074" lon="3.47774">
        <ele>412.6</ele>
        <time>2021-01-20T13:36:05Z</time>
      </trkpt>
      <trkpt lat="46.11075" lon="3.47775">
        <ele>412.4</ele>
        <time>2021-01-20T13:36:07Z</time>
      </trkpt>
      <trkpt lat="46.11076" lon="3.47778">
        <ele>412.4</ele>
        <time>2021-01-20T13:36:08Z</time>
      </trkpt>
      <trkpt lat="46.11078" lon="3.4778">
        <ele>412.4</ele>
        <time>2021-01-20T13:36:09Z</time>
      </trkpt>
      <trkpt lat="46.11078" lon="3.47783">
        <ele>412</ele>
        <time>2021-01-20T13:36:11Z</time>
      </trkpt>
      <trkpt lat="46.1108" lon="3.47786">
        <ele>412.8</ele>
        <time>2021-01-20T13:36:20Z</time>
      </trkpt>
      <trkpt lat="46.11081" lon="3.47787">
        <ele>413.2</ele>
        <time>2021-01-20T13:36:22Z</time>
      </trkpt>
      <trkpt lat="46.11083" lon="3.47789">
        <ele>413.2</ele>
        <time>2021-01-20T13:36:25Z</time>
      </trkpt>
      <trkpt lat="46.11085" lon="3.47789">
        <ele>412.8</ele>
        <time>2021-01-20T13:36:27Z</time>
      </trkpt>
      <trkpt lat="46.11087" lon="3.47792">
        <ele>411.8</ele>
        <time>2021-01-20T13:36:30Z</time>
      </trkpt>
      <trkpt lat="46.11087" lon="3.47795">
        <ele>411.4</ele>
        <time>2021-01-20T13:36:33Z</time>
      </trkpt>
      <trkpt lat="46.11088" lon="3.47798">
        <ele>411.6</ele>
        <time>2021-01-20T13:36:37Z</time>
      </trkpt>
      <trkpt lat="46.11087" lon="3.47801">
        <ele>411.4</ele>
        <time>2021-01-20T13:36:40Z</time>
      </trkpt>
      <trkpt lat="46.11086" lon="3.47805">
        <ele>410.8</ele>
        <time>2021-01-20T13:36:43Z</time>
      </trkpt>
      <trkpt lat="46.11085" lon="3.47809">
        <ele>410.4</ele>
        <time>2021-01-20T13:36:46Z</time>
      </trkpt>
      <trkpt lat="46.11084" lon="3.47812">
        <ele>410.2</ele>
        <time>2021-01-20T13:36:48Z</time>
      </trkpt>
      <trkpt lat="46.11083" lon="3.47815">
        <ele>410</ele>
        <time>2021-01-20T13:36:50Z</time>
      </trkpt>
      <trkpt lat="46.11085" lon="3.47818">
        <ele>409.6</ele>
        <time>2021-01-20T13:36:53Z</time>
      </trkpt>
      <trkpt lat="46.11087" lon="3.47818">
        <ele>409.2</ele>
        <time>2021-01-20T13:36:56Z</time>
      </trkpt>
      <trkpt lat="46.11089" lon="3.47818">
        <ele>409.2</ele>
        <time>2021-01-20T13:36:58Z</time>
      </trkpt>
      <trkpt lat="46.11091" lon="3.4782">
        <ele>408.6</ele>
        <time>2021-01-20T13:37:00Z</time>
      </trkpt>
      <trkpt lat="46.11092" lon="3.47824">
        <ele>408.2</ele>
        <time>2021-01-20T13:37:03Z</time>
      </trkpt>
      <trkpt lat="46.11095" lon="3.47825">
        <ele>408</ele>
        <time>2021-01-20T13:37:07Z</time>
      </trkpt>
      <trkpt lat="46.11097" lon="3.47825">
        <ele>407.8</ele>
        <time>2021-01-20T13:37:11Z</time>
      </trkpt>
      <trkpt lat="46.11094" lon="3.47825">
        <ele>407.4</ele>
        <time>2021-01-20T13:37:14Z</time>
      </trkpt>
      <trkpt lat="46.11093" lon="3.47828">
        <ele>407.2</ele>
        <time>2021-01-20T13:37:18Z</time>
      </trkpt>
      <trkpt lat="46.11094" lon="3.47831">
        <ele>406.6</ele>
        <time>2021-01-20T13:37:35Z</time>
      </trkpt>
      <trkpt lat="46.11095" lon="3.47836">
        <ele>406.4</ele>
        <time>2021-01-20T13:37:37Z</time>
      </trkpt>
      <trkpt lat="46.11096" lon="3.47839">
        <ele>406</ele>
        <time>2021-01-20T13:37:39Z</time>
      </trkpt>
      <trkpt lat="46.11097" lon="3.47841">
        <ele>405.4</ele>
        <time>2021-01-20T13:37:41Z</time>
      </trkpt>
      <trkpt lat="46.11098" lon="3.47844">
        <ele>404.4</ele>
        <time>2021-01-20T13:37:44Z</time>
      </trkpt>
      <trkpt lat="46.11096" lon="3.47843">
        <ele>403</ele>
        <time>2021-01-20T13:37:52Z</time>
      </trkpt>
      <trkpt lat="46.11097" lon="3.47846">
        <ele>402.6</ele>
        <time>2021-01-20T13:37:56Z</time>
      </trkpt>
      <trkpt lat="46.11097" lon="3.47849">
        <ele>402.8</ele>
        <time>2021-01-20T13:37:58Z</time>
      </trkpt>
      <trkpt lat="46.11096" lon="3.47852">
        <ele>403</ele>
        <time>2021-01-20T13:38:01Z</time>
      </trkpt>
      <trkpt lat="46.11098" lon="3.47853">
        <ele>403.6</ele>
        <time>2021-01-20T13:38:03Z</time>
      </trkpt>
      <trkpt lat="46.11097" lon="3.47856">
        <ele>404.4</ele>
        <time>2021-01-20T13:38:12Z</time>
      </trkpt>
      <trkpt lat="46.11095" lon="3.47858">
        <ele>404.2</ele>
        <time>2021-01-20T13:38:13Z</time>
      </trkpt>
      <trkpt lat="46.11093" lon="3.47859">
        <ele>404.2</ele>
        <time>2021-01-20T13:38:14Z</time>
      </trkpt>
      <trkpt lat="46.11092" lon="3.47861">
        <ele>404</ele>
        <time>2021-01-20T13:38:17Z</time>
      </trkpt>
      <trkpt lat="46.11094" lon="3.47862">
        <ele>404.2</ele>
        <time>2021-01-20T13:38:21Z</time>
      </trkpt>
      <trkpt lat="46.11096" lon="3.47861">
        <ele>404.4</ele>
        <time>2021-01-20T13:38:26Z</time>
      </trkpt>
      <trkpt lat="46.11098" lon="3.4786">
        <ele>403.8</ele>
        <time>2021-01-20T13:38:28Z</time>
      </trkpt>
      <trkpt lat="46.11096" lon="3.47858">
        <ele>403</ele>
        <time>2021-01-20T13:38:37Z</time>
      </trkpt>
      <trkpt lat="46.11095" lon="3.47855">
        <ele>403</ele>
        <time>2021-01-20T13:38:40Z</time>
      </trkpt>
      <trkpt lat="46.11094" lon="3.47852">
        <ele>405.2</ele>
        <time>2021-01-20T13:38:43Z</time>
      </trkpt>
      <trkpt lat="46.11092" lon="3.47849">
        <ele>408.2</ele>
        <time>2021-01-20T13:38:46Z</time>
      </trkpt>
      <trkpt lat="46.11091" lon="3.47846">
        <ele>407.8</ele>
        <time>2021-01-20T13:38:48Z</time>
      </trkpt>
      <trkpt lat="46.1109" lon="3.47844">
        <ele>407.6</ele>
        <time>2021-01-20T13:38:50Z</time>
      </trkpt>
      <trkpt lat="46.11091" lon="3.47841">
        <ele>409.2</ele>
        <time>2021-01-20T13:38:57Z</time>
      </trkpt>
      <trkpt lat="46.11092" lon="3.47838">
        <ele>409.4</ele>
        <time>2021-01-20T13:39:01Z</time>
      </trkpt>
      <trkpt lat="46.11089" lon="3.47836">
        <ele>409.4</ele>
        <time>2021-01-20T13:39:03Z</time>
      </trkpt>
      <trkpt lat="46.11087" lon="3.47833">
        <ele>409.6</ele>
        <time>2021-01-20T13:39:05Z</time>
      </trkpt>
      <trkpt lat="46.11086" lon="3.47831">
        <ele>409.6</ele>
        <time>2021-01-20T13:39:07Z</time>
      </trkpt>
      <trkpt lat="46.11083" lon="3.4783">
        <ele>410.2</ele>
        <time>2021-01-20T13:39:09Z</time>
      </trkpt>
      <trkpt lat="46.1108" lon="3.4783">
        <ele>410.6</ele>
        <time>2021-01-20T13:39:11Z</time>
      </trkpt>
      <trkpt lat="46.11078" lon="3.47827">
        <ele>411.2</ele>
        <time>2021-01-20T13:39:13Z</time>
      </trkpt>
      <trkpt lat="46.11079" lon="3.47823">
        <ele>411.8</ele>
        <time>2021-01-20T13:39:15Z</time>
      </trkpt>
      <trkpt lat="46.11076" lon="3.47809">
        <ele>412.4</ele>
        <time>2021-01-20T13:39:23Z</time>
      </trkpt>
      <trkpt lat="46.11076" lon="3.47807">
        <ele>412.4</ele>
        <time>2021-01-20T13:39:25Z</time>
      </trkpt>
      <trkpt lat="46.11076" lon="3.47804">
        <ele>412.2</ele>
        <time>2021-01-20T13:39:28Z</time>
      </trkpt>
      <trkpt lat="46.11076" lon="3.47801">
        <ele>412.2</ele>
        <time>2021-01-20T13:39:31Z</time>
      </trkpt>
      <trkpt lat="46.11074" lon="3.47799">
        <ele>412</ele>
        <time>2021-01-20T13:39:34Z</time>
      </trkpt>
      <trkpt lat="46.11072" lon="3.47799">
        <ele>412</ele>
        <time>2021-01-20T13:39:36Z</time>
      </trkpt>
      <trkpt lat="46.11063" lon="3.47792">
        <ele>412.4</ele>
        <time>2021-01-20T13:39:41Z</time>
      </trkpt>
      <trkpt lat="46.11056" lon="3.47784">
        <ele>412.8</ele>
        <time>2021-01-20T13:39:46Z</time>
      </trkpt>
      <trkpt lat="46.11051" lon="3.47781">
        <ele>413.6</ele>
        <time>2021-01-20T13:39:51Z</time>
      </trkpt>
      <trkpt lat="46.11049" lon="3.47778">
        <ele>414.2</ele>
        <time>2021-01-20T13:39:53Z</time>
      </trkpt>
      <trkpt lat="46.11046" lon="3.47776">
        <ele>414.8</ele>
        <time>2021-01-20T13:39:56Z</time>
      </trkpt>
      <trkpt lat="46.11045" lon="3.47774">
        <ele>415</ele>
        <time>2021-01-20T13:39:58Z</time>
      </trkpt>
      <trkpt lat="46.11043" lon="3.47772">
        <ele>415</ele>
        <time>2021-01-20T13:40:00Z</time>
      </trkpt>
      <trkpt lat="46.11041" lon="3.4777">
        <ele>416</ele>
        <time>2021-01-20T13:40:02Z</time>
      </trkpt>
      <trkpt lat="46.1104" lon="3.47767">
        <ele>416.2</ele>
        <time>2021-01-20T13:40:04Z</time>
      </trkpt>
      <trkpt lat="46.11039" lon="3.47764">
        <ele>416.2</ele>
        <time>2021-01-20T13:40:06Z</time>
      </trkpt>
      <trkpt lat="46.11038" lon="3.47762">
        <ele>416</ele>
        <time>2021-01-20T13:40:08Z</time>
      </trkpt>
      <trkpt lat="46.11036" lon="3.47761">
        <ele>415.6</ele>
        <time>2021-01-20T13:40:10Z</time>
      </trkpt>
      <trkpt lat="46.11034" lon="3.4776">
        <ele>415.8</ele>
        <time>2021-01-20T13:40:12Z</time>
      </trkpt>
      <trkpt lat="46.11032" lon="3.47758">
        <ele>416</ele>
        <time>2021-01-20T13:40:14Z</time>
      </trkpt>
      <trkpt lat="46.11029" lon="3.47757">
        <ele>416.4</ele>
        <time>2021-01-20T13:40:16Z</time>
      </trkpt>
      <trkpt lat="46.11027" lon="3.47755">
        <ele>416.6</ele>
        <time>2021-01-20T13:40:18Z</time>
      </trkpt>
      <trkpt lat="46.11027" lon="3.47751">
        <ele>416.6</ele>
        <time>2021-01-20T13:40:20Z</time>
      </trkpt>
      <trkpt lat="46.11027" lon="3.47748">
        <ele>417.2</ele>
        <time>2021-01-20T13:40:22Z</time>
      </trkpt>
      <trkpt lat="46.11027" lon="3.47745">
        <ele>417.4</ele>
        <time>2021-01-20T13:40:25Z</time>
      </trkpt>
      <trkpt lat="46.11025" lon="3.47744">
        <ele>416.6</ele>
        <time>2021-01-20T13:40:28Z</time>
      </trkpt>
      <trkpt lat="46.11027" lon="3.47742">
        <ele>416.2</ele>
        <time>2021-01-20T13:40:33Z</time>
      </trkpt>
      <trkpt lat="46.11029" lon="3.4774">
        <ele>416.6</ele>
        <time>2021-01-20T13:40:36Z</time>
      </trkpt>
      <trkpt lat="46.1103" lon="3.47738">
        <ele>417.4</ele>
        <time>2021-01-20T13:40:43Z</time>
      </trkpt>
      <trkpt lat="46.11029" lon="3.47735">
        <ele>418.2</ele>
        <time>2021-01-20T13:40:52Z</time>
      </trkpt>
      <trkpt lat="46.11031" lon="3.47737">
        <ele>417.8</ele>
        <time>2021-01-20T13:40:55Z</time>
      </trkpt>
      <trkpt lat="46.11029" lon="3.47735">
        <ele>416.8</ele>
        <time>2021-01-20T13:41:12Z</time>
      </trkpt>
      <trkpt lat="46.1103" lon="3.47738">
        <ele>413.6</ele>
        <time>2021-01-20T13:41:23Z</time>
      </trkpt>
      <trkpt lat="46.1103" lon="3.47741">
        <ele>415.2</ele>
        <time>2021-01-20T13:41:29Z</time>
      </trkpt>
      <trkpt lat="46.1103" lon="3.47738">
        <ele>414.6</ele>
        <time>2021-01-20T13:41:53Z</time>
      </trkpt>
      <trkpt lat="46.11028" lon="3.47738">
        <ele>414.4</ele>
        <time>2021-01-20T13:42:02Z</time>
      </trkpt>
      <trkpt lat="46.11026" lon="3.47737">
        <ele>414.6</ele>
        <time>2021-01-20T13:42:10Z</time>
      </trkpt>
      <trkpt lat="46.11025" lon="3.47738">
        <ele>416</ele>
        <time>2021-01-20T13:42:16Z</time>
      </trkpt>
      <trkpt lat="46.11026" lon="3.47738">
        <ele>416.6</ele>
        <time>2021-01-20T13:42:20Z</time>
      </trkpt>
      <trkpt lat="46.11028" lon="3.47739">
        <ele>417.4</ele>
        <time>2021-01-20T13:42:29Z</time>
      </trkpt>
      <trkpt lat="46.11027" lon="3.47737">
        <ele>417.8</ele>
        <time>2021-01-20T13:42:43Z</time>
      </trkpt>
      <trkpt lat="46.11068" lon="3.4776">
        <ele>413.8</ele>
        <time>2021-01-20T14:02:04Z</time>
      </trkpt>
      <trkpt lat="46.11066" lon="3.4776">
        <ele>414</ele>
        <time>2021-01-20T14:02:06Z</time>
      </trkpt>
      <trkpt lat="46.11063" lon="3.4776">
        <ele>414.2</ele>
        <time>2021-01-20T14:02:08Z</time>
      </trkpt>
      <trkpt lat="46.11061" lon="3.47759">
        <ele>414.6</ele>
        <time>2021-01-20T14:02:10Z</time>
      </trkpt>
      <trkpt lat="46.11051" lon="3.47759">
        <ele>416.2</ele>
        <time>2021-01-20T14:02:19Z</time>
      </trkpt>
      <trkpt lat="46.11041" lon="3.47756">
        <ele>418.4</ele>
        <time>2021-01-20T14:02:27Z</time>
      </trkpt>
      <trkpt lat="46.11035" lon="3.47753">
        <ele>419.2</ele>
        <time>2021-01-20T14:02:30Z</time>
      </trkpt>
      <trkpt lat="46.11033" lon="3.47752">
        <ele>419.2</ele>
        <time>2021-01-20T14:02:31Z</time>
      </trkpt>
      <trkpt lat="46.11032" lon="3.47751">
        <ele>420.2</ele>
        <time>2021-01-20T14:02:34Z</time>
      </trkpt>
      <trkpt lat="46.1103" lon="3.47751">
        <ele>420.6</ele>
        <time>2021-01-20T14:02:36Z</time>
      </trkpt>
      <trkpt lat="46.11028" lon="3.4775">
        <ele>420.8</ele>
        <time>2021-01-20T14:02:43Z</time>
      </trkpt>
      <trkpt lat="46.11026" lon="3.47749">
        <ele>421</ele>
        <time>2021-01-20T14:02:48Z</time>
      </trkpt>
      <trkpt lat="46.11025" lon="3.47746">
        <ele>420.4</ele>
        <time>2021-01-20T14:02:59Z</time>
      </trkpt>
      <trkpt lat="46.11024" lon="3.47745">
        <ele>419.2</ele>
        <time>2021-01-20T14:03:21Z</time>
      </trkpt>
      <trkpt lat="46.11025" lon="3.47742">
        <ele>418.2</ele>
        <time>2021-01-20T14:03:27Z</time>
      </trkpt>
      <trkpt lat="46.11024" lon="3.47739">
        <ele>417.8</ele>
        <time>2021-01-20T14:03:33Z</time>
      </trkpt>
      <trkpt lat="46.11022" lon="3.47738">
        <ele>417.2</ele>
        <time>2021-01-20T14:03:40Z</time>
      </trkpt>
      <trkpt lat="46.11024" lon="3.47736">
        <ele>416.6</ele>
        <time>2021-01-20T14:03:45Z</time>
      </trkpt>
      <trkpt lat="46.1102" lon="3.47737">
        <ele>414.8</ele>
        <time>2021-01-20T14:04:00Z</time>
      </trkpt>
      <trkpt lat="46.11022" lon="3.47738">
        <ele>416</ele>
        <time>2021-01-20T14:04:05Z</time>
      </trkpt>
      <trkpt lat="46.11023" lon="3.4774">
        <ele>417.2</ele>
        <time>2021-01-20T14:04:09Z</time>
      </trkpt>
      <trkpt lat="46.11026" lon="3.47741">
        <ele>418.4</ele>
        <time>2021-01-20T14:04:24Z</time>
      </trkpt>
    </trkseg>
  </trk>
</gpx>